<?xml version="1.0" encoding="UTF-8" standalone="no" ?>
<gpx xmlns="http://www.topografix.com/GPX/1/1" xmlns:xsi="http://www.w3.org/2001/XMLSchema-instance" xsi:schemaLocation="http://www.topografix.com/GPX/1/1 http://www.topografix.com/GPX/1/1/gpx.xsd" version="1.1" creator="VisuGPX - https://www.visugpx.com">
  <metadata>
    <name>Pranles N4 260319</name>
  </metadata>
  <trk>
    <name><![CDATA[2019-03-26 08:47:57]]></name>
    <trkseg>
      <trkpt lat="44.77095" lon="4.57242">
        <ele>599.68</ele>
        <time>2019-03-26T07:47:57.000Z</time>
      </trkpt>
      <trkpt lat="44.77086" lon="4.57226">
        <ele>598.61</ele>
        <time>2019-03-26T07:48:19.000Z</time>
      </trkpt>
      <trkpt lat="44.77071" lon="4.57206">
        <ele>592.42</ele>
        <time>2019-03-26T07:48:39.000Z</time>
      </trkpt>
      <trkpt lat="44.77056" lon="4.57193">
        <ele>596.66</ele>
        <time>2019-03-26T07:48:59.000Z</time>
      </trkpt>
      <trkpt lat="44.77026" lon="4.57185">
        <ele>593.32</ele>
        <time>2019-03-26T07:49:19.000Z</time>
      </trkpt>
      <trkpt lat="44.77009" lon="4.57171">
        <ele>595.94</ele>
        <time>2019-03-26T07:49:39.000Z</time>
      </trkpt>
      <trkpt lat="44.76996" lon="4.57149">
        <ele>588.89</ele>
        <time>2019-03-26T07:49:59.000Z</time>
      </trkpt>
      <trkpt lat="44.76996" lon="4.57116">
        <ele>593.37</ele>
        <time>2019-03-26T07:50:19.000Z</time>
      </trkpt>
      <trkpt lat="44.77002" lon="4.57088">
        <ele>595.38</ele>
        <time>2019-03-26T07:50:39.000Z</time>
      </trkpt>
      <trkpt lat="44.77002" lon="4.57061">
        <ele>591.74</ele>
        <time>2019-03-26T07:50:59.000Z</time>
      </trkpt>
      <trkpt lat="44.77005" lon="4.57025">
        <ele>596.65</ele>
        <time>2019-03-26T07:51:19.000Z</time>
      </trkpt>
      <trkpt lat="44.77004" lon="4.56992">
        <ele>594.68</ele>
        <time>2019-03-26T07:51:39.000Z</time>
      </trkpt>
      <trkpt lat="44.77" lon="4.56946">
        <ele>597.68</ele>
        <time>2019-03-26T07:51:59.000Z</time>
      </trkpt>
      <trkpt lat="44.76997" lon="4.56908">
        <ele>597.68</ele>
        <time>2019-03-26T07:52:19.000Z</time>
      </trkpt>
      <trkpt lat="44.76994" lon="4.56878">
        <ele>593.69</ele>
        <time>2019-03-26T07:52:39.000Z</time>
      </trkpt>
      <trkpt lat="44.7699" lon="4.56844">
        <ele>587.95</ele>
        <time>2019-03-26T07:52:59.000Z</time>
      </trkpt>
      <trkpt lat="44.76986" lon="4.56807">
        <ele>587.6</ele>
        <time>2019-03-26T07:53:19.000Z</time>
      </trkpt>
      <trkpt lat="44.76985" lon="4.56774">
        <ele>590.67</ele>
        <time>2019-03-26T07:53:39.000Z</time>
      </trkpt>
      <trkpt lat="44.76992" lon="4.56737">
        <ele>592.95</ele>
        <time>2019-03-26T07:53:59.000Z</time>
      </trkpt>
      <trkpt lat="44.77012" lon="4.56733">
        <ele>592.19</ele>
        <time>2019-03-26T07:54:19.000Z</time>
      </trkpt>
      <trkpt lat="44.77038" lon="4.56735">
        <ele>596.42</ele>
        <time>2019-03-26T07:54:39.000Z</time>
      </trkpt>
      <trkpt lat="44.77062" lon="4.56738">
        <ele>598.98</ele>
        <time>2019-03-26T07:54:59.000Z</time>
      </trkpt>
      <trkpt lat="44.77082" lon="4.56737">
        <ele>604.61</ele>
        <time>2019-03-26T07:55:19.000Z</time>
      </trkpt>
      <trkpt lat="44.77108" lon="4.5674">
        <ele>605.68</ele>
        <time>2019-03-26T07:55:39.000Z</time>
      </trkpt>
      <trkpt lat="44.77134" lon="4.56741">
        <ele>608.55</ele>
        <time>2019-03-26T07:55:59.000Z</time>
      </trkpt>
      <trkpt lat="44.77155" lon="4.56731">
        <ele>608.97</ele>
        <time>2019-03-26T07:56:19.000Z</time>
      </trkpt>
      <trkpt lat="44.7718" lon="4.56724">
        <ele>614.66</ele>
        <time>2019-03-26T07:56:39.000Z</time>
      </trkpt>
      <trkpt lat="44.77199" lon="4.56714">
        <ele>617.48</ele>
        <time>2019-03-26T07:56:59.000Z</time>
      </trkpt>
      <trkpt lat="44.77217" lon="4.56696">
        <ele>615.91</ele>
        <time>2019-03-26T07:57:19.000Z</time>
      </trkpt>
      <trkpt lat="44.77243" lon="4.56677">
        <ele>618.94</ele>
        <time>2019-03-26T07:57:39.000Z</time>
      </trkpt>
      <trkpt lat="44.77259" lon="4.56658">
        <ele>614.78</ele>
        <time>2019-03-26T07:57:59.000Z</time>
      </trkpt>
      <trkpt lat="44.77275" lon="4.56637">
        <ele>613.86</ele>
        <time>2019-03-26T07:58:19.000Z</time>
      </trkpt>
      <trkpt lat="44.77291" lon="4.56608">
        <ele>621.73</ele>
        <time>2019-03-26T07:58:39.000Z</time>
      </trkpt>
      <trkpt lat="44.77306" lon="4.56583">
        <ele>621.73</ele>
        <time>2019-03-26T07:58:59.000Z</time>
      </trkpt>
      <trkpt lat="44.77326" lon="4.56552">
        <ele>623.68</ele>
        <time>2019-03-26T07:59:19.000Z</time>
      </trkpt>
      <trkpt lat="44.77343" lon="4.56537">
        <ele>627.91</ele>
        <time>2019-03-26T07:59:39.000Z</time>
      </trkpt>
      <trkpt lat="44.77351" lon="4.56518">
        <ele>622.74</ele>
        <time>2019-03-26T07:59:59.000Z</time>
      </trkpt>
      <trkpt lat="44.77372" lon="4.56496">
        <ele>625.48</ele>
        <time>2019-03-26T08:00:19.000Z</time>
      </trkpt>
      <trkpt lat="44.77394" lon="4.5648">
        <ele>621.64</ele>
        <time>2019-03-26T08:00:39.000Z</time>
      </trkpt>
      <trkpt lat="44.77418" lon="4.56457">
        <ele>630.65</ele>
        <time>2019-03-26T08:00:59.000Z</time>
      </trkpt>
      <trkpt lat="44.77439" lon="4.56431">
        <ele>635.04</ele>
        <time>2019-03-26T08:01:19.000Z</time>
      </trkpt>
      <trkpt lat="44.77458" lon="4.56426">
        <ele>635.31</ele>
        <time>2019-03-26T08:01:39.000Z</time>
      </trkpt>
      <trkpt lat="44.77482" lon="4.56412">
        <ele>640.66</ele>
        <time>2019-03-26T08:01:59.000Z</time>
      </trkpt>
      <trkpt lat="44.775" lon="4.56399">
        <ele>643.42</ele>
        <time>2019-03-26T08:02:19.000Z</time>
      </trkpt>
      <trkpt lat="44.77523" lon="4.56387">
        <ele>647.67</ele>
        <time>2019-03-26T08:02:39.000Z</time>
      </trkpt>
      <trkpt lat="44.77545" lon="4.56366">
        <ele>647.69</ele>
        <time>2019-03-26T08:02:59.000Z</time>
      </trkpt>
      <trkpt lat="44.77562" lon="4.56343">
        <ele>647.72</ele>
        <time>2019-03-26T08:03:19.000Z</time>
      </trkpt>
      <trkpt lat="44.77578" lon="4.5632">
        <ele>650.91</ele>
        <time>2019-03-26T08:03:39.000Z</time>
      </trkpt>
      <trkpt lat="44.77588" lon="4.56291">
        <ele>648.65</ele>
        <time>2019-03-26T08:03:59.000Z</time>
      </trkpt>
      <trkpt lat="44.77602" lon="4.56267">
        <ele>656.54</ele>
        <time>2019-03-26T08:04:19.000Z</time>
      </trkpt>
      <trkpt lat="44.7761" lon="4.5625">
        <ele>661.84</ele>
        <time>2019-03-26T08:04:39.000Z</time>
      </trkpt>
      <trkpt lat="44.77623" lon="4.56245">
        <ele>665.41</ele>
        <time>2019-03-26T08:05:01.000Z</time>
      </trkpt>
      <trkpt lat="44.77642" lon="4.56239">
        <ele>668.51</ele>
        <time>2019-03-26T08:05:21.000Z</time>
      </trkpt>
      <trkpt lat="44.77655" lon="4.56231">
        <ele>660.66</ele>
        <time>2019-03-26T08:07:37.000Z</time>
      </trkpt>
      <trkpt lat="44.77674" lon="4.56222">
        <ele>664.89</ele>
        <time>2019-03-26T08:07:57.000Z</time>
      </trkpt>
      <trkpt lat="44.77693" lon="4.56211">
        <ele>665.91</ele>
        <time>2019-03-26T08:08:17.000Z</time>
      </trkpt>
      <trkpt lat="44.77711" lon="4.56216">
        <ele>674.71</ele>
        <time>2019-03-26T08:08:37.000Z</time>
      </trkpt>
      <trkpt lat="44.77722" lon="4.56194">
        <ele>669.92</ele>
        <time>2019-03-26T08:08:57.000Z</time>
      </trkpt>
      <trkpt lat="44.77739" lon="4.5618">
        <ele>678.37</ele>
        <time>2019-03-26T08:09:17.000Z</time>
      </trkpt>
      <trkpt lat="44.77757" lon="4.56168">
        <ele>681</ele>
        <time>2019-03-26T08:09:37.000Z</time>
      </trkpt>
      <trkpt lat="44.77781" lon="4.56158">
        <ele>685.65</ele>
        <time>2019-03-26T08:09:57.000Z</time>
      </trkpt>
      <trkpt lat="44.77793" lon="4.56149">
        <ele>688.69</ele>
        <time>2019-03-26T08:10:37.000Z</time>
      </trkpt>
      <trkpt lat="44.77812" lon="4.5615">
        <ele>690.72</ele>
        <time>2019-03-26T08:10:57.000Z</time>
      </trkpt>
      <trkpt lat="44.77833" lon="4.56135">
        <ele>692.61</ele>
        <time>2019-03-26T08:11:17.000Z</time>
      </trkpt>
      <trkpt lat="44.77849" lon="4.56112">
        <ele>695.41</ele>
        <time>2019-03-26T08:11:37.000Z</time>
      </trkpt>
      <trkpt lat="44.77861" lon="4.56084">
        <ele>699.55</ele>
        <time>2019-03-26T08:11:57.000Z</time>
      </trkpt>
      <trkpt lat="44.77866" lon="4.56054">
        <ele>697.67</ele>
        <time>2019-03-26T08:12:17.000Z</time>
      </trkpt>
      <trkpt lat="44.77873" lon="4.56027">
        <ele>695.29</ele>
        <time>2019-03-26T08:12:37.000Z</time>
      </trkpt>
      <trkpt lat="44.77876" lon="4.55987">
        <ele>700.41</ele>
        <time>2019-03-26T08:12:57.000Z</time>
      </trkpt>
      <trkpt lat="44.77877" lon="4.55949">
        <ele>704.14</ele>
        <time>2019-03-26T08:13:17.000Z</time>
      </trkpt>
      <trkpt lat="44.77882" lon="4.55918">
        <ele>707.66</ele>
        <time>2019-03-26T08:13:37.000Z</time>
      </trkpt>
      <trkpt lat="44.77884" lon="4.55883">
        <ele>711.85</ele>
        <time>2019-03-26T08:13:57.000Z</time>
      </trkpt>
      <trkpt lat="44.77889" lon="4.55851">
        <ele>713.61</ele>
        <time>2019-03-26T08:14:17.000Z</time>
      </trkpt>
      <trkpt lat="44.779" lon="4.55818">
        <ele>719.65</ele>
        <time>2019-03-26T08:14:37.000Z</time>
      </trkpt>
      <trkpt lat="44.77908" lon="4.5579">
        <ele>716.66</ele>
        <time>2019-03-26T08:14:57.000Z</time>
      </trkpt>
      <trkpt lat="44.77906" lon="4.5576">
        <ele>721.28</ele>
        <time>2019-03-26T08:15:17.000Z</time>
      </trkpt>
      <trkpt lat="44.77902" lon="4.55739">
        <ele>716.44</ele>
        <time>2019-03-26T08:15:37.000Z</time>
      </trkpt>
      <trkpt lat="44.77899" lon="4.55719">
        <ele>717.7</ele>
        <time>2019-03-26T08:15:57.000Z</time>
      </trkpt>
      <trkpt lat="44.77892" lon="4.557">
        <ele>710.42</ele>
        <time>2019-03-26T08:16:17.000Z</time>
      </trkpt>
      <trkpt lat="44.77896" lon="4.5566">
        <ele>725.93</ele>
        <time>2019-03-26T08:16:37.000Z</time>
      </trkpt>
      <trkpt lat="44.77907" lon="4.55633">
        <ele>733.77</ele>
        <time>2019-03-26T08:16:57.000Z</time>
      </trkpt>
      <trkpt lat="44.77912" lon="4.55605">
        <ele>732.75</ele>
        <time>2019-03-26T08:17:17.000Z</time>
      </trkpt>
      <trkpt lat="44.77932" lon="4.55603">
        <ele>736.4</ele>
        <time>2019-03-26T08:17:37.000Z</time>
      </trkpt>
      <trkpt lat="44.7795" lon="4.55584">
        <ele>730.61</ele>
        <time>2019-03-26T08:17:57.000Z</time>
      </trkpt>
      <trkpt lat="44.77952" lon="4.55549">
        <ele>729.89</ele>
        <time>2019-03-26T08:18:17.000Z</time>
      </trkpt>
      <trkpt lat="44.7795" lon="4.5552">
        <ele>723.73</ele>
        <time>2019-03-26T08:18:37.000Z</time>
      </trkpt>
      <trkpt lat="44.77949" lon="4.55485">
        <ele>721.73</ele>
        <time>2019-03-26T08:18:57.000Z</time>
      </trkpt>
      <trkpt lat="44.77952" lon="4.55453">
        <ele>720.4</ele>
        <time>2019-03-26T08:19:17.000Z</time>
      </trkpt>
      <trkpt lat="44.7796" lon="4.55419">
        <ele>716.73</ele>
        <time>2019-03-26T08:19:37.000Z</time>
      </trkpt>
      <trkpt lat="44.77969" lon="4.55387">
        <ele>713.65</ele>
        <time>2019-03-26T08:19:57.000Z</time>
      </trkpt>
      <trkpt lat="44.77977" lon="4.55354">
        <ele>711.72</ele>
        <time>2019-03-26T08:20:17.000Z</time>
      </trkpt>
      <trkpt lat="44.77982" lon="4.55321">
        <ele>710.15</ele>
        <time>2019-03-26T08:20:37.000Z</time>
      </trkpt>
      <trkpt lat="44.77986" lon="4.55302">
        <ele>705.6</ele>
        <time>2019-03-26T08:21:26.000Z</time>
      </trkpt>
      <trkpt lat="44.7799" lon="4.55281">
        <ele>702.63</ele>
        <time>2019-03-26T08:21:46.000Z</time>
      </trkpt>
      <trkpt lat="44.77987" lon="4.5526">
        <ele>702.48</ele>
        <time>2019-03-26T08:22:08.000Z</time>
      </trkpt>
      <trkpt lat="44.77991" lon="4.55227">
        <ele>699.58</ele>
        <time>2019-03-26T08:22:28.000Z</time>
      </trkpt>
      <trkpt lat="44.77992" lon="4.55193">
        <ele>697.7</ele>
        <time>2019-03-26T08:22:48.000Z</time>
      </trkpt>
      <trkpt lat="44.77995" lon="4.55155">
        <ele>693.59</ele>
        <time>2019-03-26T08:23:08.000Z</time>
      </trkpt>
      <trkpt lat="44.78003" lon="4.55119">
        <ele>689.64</ele>
        <time>2019-03-26T08:23:28.000Z</time>
      </trkpt>
      <trkpt lat="44.77992" lon="4.55091">
        <ele>685.9</ele>
        <time>2019-03-26T08:23:48.000Z</time>
      </trkpt>
      <trkpt lat="44.77967" lon="4.5508">
        <ele>682.71</ele>
        <time>2019-03-26T08:24:08.000Z</time>
      </trkpt>
      <trkpt lat="44.77941" lon="4.55065">
        <ele>684.33</ele>
        <time>2019-03-26T08:24:28.000Z</time>
      </trkpt>
      <trkpt lat="44.77918" lon="4.55056">
        <ele>681.22</ele>
        <time>2019-03-26T08:24:48.000Z</time>
      </trkpt>
      <trkpt lat="44.77895" lon="4.55047">
        <ele>678.4</ele>
        <time>2019-03-26T08:25:08.000Z</time>
      </trkpt>
      <trkpt lat="44.77884" lon="4.55028">
        <ele>673.74</ele>
        <time>2019-03-26T08:25:28.000Z</time>
      </trkpt>
      <trkpt lat="44.7787" lon="4.54993">
        <ele>671.71</ele>
        <time>2019-03-26T08:25:48.000Z</time>
      </trkpt>
      <trkpt lat="44.77864" lon="4.54963">
        <ele>671.7</ele>
        <time>2019-03-26T08:26:08.000Z</time>
      </trkpt>
      <trkpt lat="44.77862" lon="4.54928">
        <ele>671.89</ele>
        <time>2019-03-26T08:26:28.000Z</time>
      </trkpt>
      <trkpt lat="44.77854" lon="4.54901">
        <ele>661.91</ele>
        <time>2019-03-26T08:26:48.000Z</time>
      </trkpt>
      <trkpt lat="44.77838" lon="4.54877">
        <ele>668.56</ele>
        <time>2019-03-26T08:27:08.000Z</time>
      </trkpt>
      <trkpt lat="44.77824" lon="4.5486">
        <ele>665.01</ele>
        <time>2019-03-26T08:27:28.000Z</time>
      </trkpt>
      <trkpt lat="44.77843" lon="4.54869">
        <ele>656.92</ele>
        <time>2019-03-26T08:27:48.000Z</time>
      </trkpt>
      <trkpt lat="44.77866" lon="4.54875">
        <ele>655.52</ele>
        <time>2019-03-26T08:28:08.000Z</time>
      </trkpt>
      <trkpt lat="44.77885" lon="4.54904">
        <ele>646.77</ele>
        <time>2019-03-26T08:28:28.000Z</time>
      </trkpt>
      <trkpt lat="44.77892" lon="4.54932">
        <ele>644.52</ele>
        <time>2019-03-26T08:28:48.000Z</time>
      </trkpt>
      <trkpt lat="44.77911" lon="4.5496">
        <ele>646.64</ele>
        <time>2019-03-26T08:29:08.000Z</time>
      </trkpt>
      <trkpt lat="44.77935" lon="4.54974">
        <ele>648.39</ele>
        <time>2019-03-26T08:29:28.000Z</time>
      </trkpt>
      <trkpt lat="44.77959" lon="4.54979">
        <ele>645.08</ele>
        <time>2019-03-26T08:29:48.000Z</time>
      </trkpt>
      <trkpt lat="44.77977" lon="4.54982">
        <ele>637.64</ele>
        <time>2019-03-26T08:30:08.000Z</time>
      </trkpt>
      <trkpt lat="44.78003" lon="4.54985">
        <ele>633.46</ele>
        <time>2019-03-26T08:30:28.000Z</time>
      </trkpt>
      <trkpt lat="44.7803" lon="4.54991">
        <ele>632.72</ele>
        <time>2019-03-26T08:30:48.000Z</time>
      </trkpt>
      <trkpt lat="44.7805" lon="4.54977">
        <ele>629.22</ele>
        <time>2019-03-26T08:31:08.000Z</time>
      </trkpt>
      <trkpt lat="44.78068" lon="4.54954">
        <ele>624.61</ele>
        <time>2019-03-26T08:31:28.000Z</time>
      </trkpt>
      <trkpt lat="44.78088" lon="4.5493">
        <ele>619.76</ele>
        <time>2019-03-26T08:31:48.000Z</time>
      </trkpt>
      <trkpt lat="44.78092" lon="4.5491">
        <ele>615.73</ele>
        <time>2019-03-26T08:32:31.000Z</time>
      </trkpt>
      <trkpt lat="44.78111" lon="4.54893">
        <ele>612.16</ele>
        <time>2019-03-26T08:32:51.000Z</time>
      </trkpt>
      <trkpt lat="44.78133" lon="4.5488">
        <ele>608.97</ele>
        <time>2019-03-26T08:33:11.000Z</time>
      </trkpt>
      <trkpt lat="44.7812" lon="4.54873">
        <ele>610.31</ele>
        <time>2019-03-26T08:34:09.000Z</time>
      </trkpt>
      <trkpt lat="44.78096" lon="4.54882">
        <ele>611.56</ele>
        <time>2019-03-26T08:34:29.000Z</time>
      </trkpt>
      <trkpt lat="44.78083" lon="4.5489">
        <ele>618.45</ele>
        <time>2019-03-26T08:34:51.000Z</time>
      </trkpt>
      <trkpt lat="44.78062" lon="4.54906">
        <ele>622.64</ele>
        <time>2019-03-26T08:35:11.000Z</time>
      </trkpt>
      <trkpt lat="44.78042" lon="4.54916">
        <ele>615.61</ele>
        <time>2019-03-26T08:35:31.000Z</time>
      </trkpt>
      <trkpt lat="44.78024" lon="4.5492">
        <ele>613.26</ele>
        <time>2019-03-26T08:35:51.000Z</time>
      </trkpt>
      <trkpt lat="44.7801" lon="4.54917">
        <ele>608.63</ele>
        <time>2019-03-26T08:36:14.000Z</time>
      </trkpt>
      <trkpt lat="44.7798" lon="4.54912">
        <ele>608.81</ele>
        <time>2019-03-26T08:36:34.000Z</time>
      </trkpt>
      <trkpt lat="44.77957" lon="4.54901">
        <ele>610.41</ele>
        <time>2019-03-26T08:36:54.000Z</time>
      </trkpt>
      <trkpt lat="44.77943" lon="4.54896">
        <ele>607.9</ele>
        <time>2019-03-26T08:37:16.000Z</time>
      </trkpt>
      <trkpt lat="44.77939" lon="4.54873">
        <ele>611.38</ele>
        <time>2019-03-26T08:37:36.000Z</time>
      </trkpt>
      <trkpt lat="44.77929" lon="4.5486">
        <ele>614.89</ele>
        <time>2019-03-26T08:37:58.000Z</time>
      </trkpt>
      <trkpt lat="44.7792" lon="4.54842">
        <ele>615.14</ele>
        <time>2019-03-26T08:38:18.000Z</time>
      </trkpt>
      <trkpt lat="44.77902" lon="4.54813">
        <ele>616.67</ele>
        <time>2019-03-26T08:38:38.000Z</time>
      </trkpt>
      <trkpt lat="44.77889" lon="4.54804">
        <ele>619.39</ele>
        <time>2019-03-26T08:38:58.000Z</time>
      </trkpt>
      <trkpt lat="44.77874" lon="4.54799">
        <ele>623.54</ele>
        <time>2019-03-26T08:39:18.000Z</time>
      </trkpt>
      <trkpt lat="44.77854" lon="4.54807">
        <ele>626.38</ele>
        <time>2019-03-26T08:39:38.000Z</time>
      </trkpt>
      <trkpt lat="44.77837" lon="4.54796">
        <ele>633.69</ele>
        <time>2019-03-26T08:39:58.000Z</time>
      </trkpt>
      <trkpt lat="44.77815" lon="4.54784">
        <ele>633.83</ele>
        <time>2019-03-26T08:40:18.000Z</time>
      </trkpt>
      <trkpt lat="44.77796" lon="4.54775">
        <ele>636.95</ele>
        <time>2019-03-26T08:40:38.000Z</time>
      </trkpt>
      <trkpt lat="44.77779" lon="4.54756">
        <ele>643.68</ele>
        <time>2019-03-26T08:40:58.000Z</time>
      </trkpt>
      <trkpt lat="44.77763" lon="4.54743">
        <ele>640.89</ele>
        <time>2019-03-26T08:41:18.000Z</time>
      </trkpt>
      <trkpt lat="44.77738" lon="4.54731">
        <ele>641.58</ele>
        <time>2019-03-26T08:41:38.000Z</time>
      </trkpt>
      <trkpt lat="44.77719" lon="4.54708">
        <ele>641.56</ele>
        <time>2019-03-26T08:41:58.000Z</time>
      </trkpt>
      <trkpt lat="44.77707" lon="4.54697">
        <ele>642.15</ele>
        <time>2019-03-26T08:42:18.000Z</time>
      </trkpt>
      <trkpt lat="44.77706" lon="4.54677">
        <ele>641.9</ele>
        <time>2019-03-26T08:42:42.000Z</time>
      </trkpt>
      <trkpt lat="44.77705" lon="4.54654">
        <ele>639.27</ele>
        <time>2019-03-26T08:43:02.000Z</time>
      </trkpt>
      <trkpt lat="44.77713" lon="4.5463">
        <ele>628.44</ele>
        <time>2019-03-26T08:43:22.000Z</time>
      </trkpt>
      <trkpt lat="44.77721" lon="4.54608">
        <ele>623.2</ele>
        <time>2019-03-26T08:43:42.000Z</time>
      </trkpt>
      <trkpt lat="44.77738" lon="4.54585">
        <ele>626.65</ele>
        <time>2019-03-26T08:44:02.000Z</time>
      </trkpt>
      <trkpt lat="44.77747" lon="4.54559">
        <ele>627.67</ele>
        <time>2019-03-26T08:44:22.000Z</time>
      </trkpt>
      <trkpt lat="44.77743" lon="4.5454">
        <ele>632.88</ele>
        <time>2019-03-26T08:45:23.000Z</time>
      </trkpt>
      <trkpt lat="44.77745" lon="4.5452">
        <ele>632.38</ele>
        <time>2019-03-26T08:45:47.000Z</time>
      </trkpt>
      <trkpt lat="44.77739" lon="4.54498">
        <ele>644.23</ele>
        <time>2019-03-26T08:46:07.000Z</time>
      </trkpt>
      <trkpt lat="44.77734" lon="4.54479">
        <ele>643.63</ele>
        <time>2019-03-26T08:46:27.000Z</time>
      </trkpt>
      <trkpt lat="44.77736" lon="4.5446">
        <ele>643.19</ele>
        <time>2019-03-26T08:46:48.000Z</time>
      </trkpt>
      <trkpt lat="44.7774" lon="4.54437">
        <ele>645.16</ele>
        <time>2019-03-26T08:47:08.000Z</time>
      </trkpt>
      <trkpt lat="44.77739" lon="4.54417">
        <ele>638.93</ele>
        <time>2019-03-26T08:47:31.000Z</time>
      </trkpt>
      <trkpt lat="44.77739" lon="4.54398">
        <ele>644.68</ele>
        <time>2019-03-26T08:47:57.000Z</time>
      </trkpt>
      <trkpt lat="44.77734" lon="4.54376">
        <ele>653.17</ele>
        <time>2019-03-26T08:48:17.000Z</time>
      </trkpt>
      <trkpt lat="44.7773" lon="4.54357">
        <ele>657.76</ele>
        <time>2019-03-26T08:48:38.000Z</time>
      </trkpt>
      <trkpt lat="44.77722" lon="4.54335">
        <ele>660.83</ele>
        <time>2019-03-26T08:48:58.000Z</time>
      </trkpt>
      <trkpt lat="44.77714" lon="4.54311">
        <ele>664.44</ele>
        <time>2019-03-26T08:49:18.000Z</time>
      </trkpt>
      <trkpt lat="44.77698" lon="4.54295">
        <ele>666.23</ele>
        <time>2019-03-26T08:49:38.000Z</time>
      </trkpt>
      <trkpt lat="44.77686" lon="4.54285">
        <ele>661.82</ele>
        <time>2019-03-26T08:49:58.000Z</time>
      </trkpt>
      <trkpt lat="44.77672" lon="4.54281">
        <ele>660.64</ele>
        <time>2019-03-26T08:50:19.000Z</time>
      </trkpt>
      <trkpt lat="44.77664" lon="4.54265">
        <ele>651.57</ele>
        <time>2019-03-26T08:50:48.000Z</time>
      </trkpt>
      <trkpt lat="44.77667" lon="4.54247">
        <ele>649.4</ele>
        <time>2019-03-26T08:51:09.000Z</time>
      </trkpt>
      <trkpt lat="44.77667" lon="4.54227">
        <ele>648.59</ele>
        <time>2019-03-26T08:51:34.000Z</time>
      </trkpt>
      <trkpt lat="44.77663" lon="4.54202">
        <ele>641.46</ele>
        <time>2019-03-26T08:51:54.000Z</time>
      </trkpt>
      <trkpt lat="44.77657" lon="4.54179">
        <ele>639.38</ele>
        <time>2019-03-26T08:52:14.000Z</time>
      </trkpt>
      <trkpt lat="44.77648" lon="4.54164">
        <ele>635.07</ele>
        <time>2019-03-26T08:52:34.000Z</time>
      </trkpt>
      <trkpt lat="44.77638" lon="4.54151">
        <ele>635.62</ele>
        <time>2019-03-26T08:52:58.000Z</time>
      </trkpt>
      <trkpt lat="44.77622" lon="4.54148">
        <ele>633.07</ele>
        <time>2019-03-26T08:53:18.000Z</time>
      </trkpt>
      <trkpt lat="44.77606" lon="4.54143">
        <ele>630.12</ele>
        <time>2019-03-26T08:53:38.000Z</time>
      </trkpt>
      <trkpt lat="44.77586" lon="4.54138">
        <ele>631.88</ele>
        <time>2019-03-26T08:53:58.000Z</time>
      </trkpt>
      <trkpt lat="44.77567" lon="4.54138">
        <ele>631.39</ele>
        <time>2019-03-26T08:54:18.000Z</time>
      </trkpt>
      <trkpt lat="44.7755" lon="4.54138">
        <ele>634.99</ele>
        <time>2019-03-26T08:54:38.000Z</time>
      </trkpt>
      <trkpt lat="44.77531" lon="4.5414">
        <ele>632.69</ele>
        <time>2019-03-26T08:54:58.000Z</time>
      </trkpt>
      <trkpt lat="44.77516" lon="4.54144">
        <ele>628.88</ele>
        <time>2019-03-26T08:55:18.000Z</time>
      </trkpt>
      <trkpt lat="44.77502" lon="4.54159">
        <ele>624.61</ele>
        <time>2019-03-26T08:55:38.000Z</time>
      </trkpt>
      <trkpt lat="44.77487" lon="4.54178">
        <ele>626.63</ele>
        <time>2019-03-26T08:55:58.000Z</time>
      </trkpt>
      <trkpt lat="44.77475" lon="4.54188">
        <ele>628.33</ele>
        <time>2019-03-26T08:56:29.000Z</time>
      </trkpt>
      <trkpt lat="44.77465" lon="4.54202">
        <ele>624.54</ele>
        <time>2019-03-26T08:56:49.000Z</time>
      </trkpt>
      <trkpt lat="44.77456" lon="4.54217">
        <ele>618.94</ele>
        <time>2019-03-26T08:57:11.000Z</time>
      </trkpt>
      <trkpt lat="44.77444" lon="4.54228">
        <ele>617.87</ele>
        <time>2019-03-26T08:57:33.000Z</time>
      </trkpt>
      <trkpt lat="44.77455" lon="4.54216">
        <ele>618.7</ele>
        <time>2019-03-26T08:58:39.000Z</time>
      </trkpt>
      <trkpt lat="44.77465" lon="4.54202">
        <ele>621.69</ele>
        <time>2019-03-26T08:59:04.000Z</time>
      </trkpt>
      <trkpt lat="44.77478" lon="4.5419">
        <ele>621.88</ele>
        <time>2019-03-26T08:59:24.000Z</time>
      </trkpt>
      <trkpt lat="44.77482" lon="4.54172">
        <ele>617.58</ele>
        <time>2019-03-26T08:59:47.000Z</time>
      </trkpt>
      <trkpt lat="44.77491" lon="4.54155">
        <ele>614.88</ele>
        <time>2019-03-26T09:00:07.000Z</time>
      </trkpt>
      <trkpt lat="44.77497" lon="4.54138">
        <ele>614.89</ele>
        <time>2019-03-26T09:00:27.000Z</time>
      </trkpt>
      <trkpt lat="44.77483" lon="4.54133">
        <ele>607.74</ele>
        <time>2019-03-26T09:01:08.000Z</time>
      </trkpt>
      <trkpt lat="44.77465" lon="4.54135">
        <ele>599.88</ele>
        <time>2019-03-26T09:01:28.000Z</time>
      </trkpt>
      <trkpt lat="44.77452" lon="4.54142">
        <ele>591.9</ele>
        <time>2019-03-26T09:01:51.000Z</time>
      </trkpt>
      <trkpt lat="44.77436" lon="4.54144">
        <ele>588.64</ele>
        <time>2019-03-26T09:02:11.000Z</time>
      </trkpt>
      <trkpt lat="44.77422" lon="4.54139">
        <ele>584.87</ele>
        <time>2019-03-26T09:02:32.000Z</time>
      </trkpt>
      <trkpt lat="44.77408" lon="4.54132">
        <ele>581.94</ele>
        <time>2019-03-26T09:03:14.000Z</time>
      </trkpt>
      <trkpt lat="44.77409" lon="4.54156">
        <ele>580.27</ele>
        <time>2019-03-26T09:03:34.000Z</time>
      </trkpt>
      <trkpt lat="44.77418" lon="4.54171">
        <ele>582.13</ele>
        <time>2019-03-26T09:04:09.000Z</time>
      </trkpt>
      <trkpt lat="44.77409" lon="4.54156">
        <ele>584.56</ele>
        <time>2019-03-26T09:04:35.000Z</time>
      </trkpt>
      <trkpt lat="44.77398" lon="4.5417">
        <ele>576.72</ele>
        <time>2019-03-26T09:05:01.000Z</time>
      </trkpt>
      <trkpt lat="44.7738" lon="4.54192">
        <ele>576.7</ele>
        <time>2019-03-26T09:05:21.000Z</time>
      </trkpt>
      <trkpt lat="44.77357" lon="4.54193">
        <ele>584.66</ele>
        <time>2019-03-26T09:05:41.000Z</time>
      </trkpt>
      <trkpt lat="44.77356" lon="4.54172">
        <ele>584.58</ele>
        <time>2019-03-26T09:06:01.000Z</time>
      </trkpt>
      <trkpt lat="44.77352" lon="4.54148">
        <ele>588.63</ele>
        <time>2019-03-26T09:06:21.000Z</time>
      </trkpt>
      <trkpt lat="44.77343" lon="4.54126">
        <ele>587.38</ele>
        <time>2019-03-26T09:06:41.000Z</time>
      </trkpt>
      <trkpt lat="44.77331" lon="4.54098">
        <ele>588.43</ele>
        <time>2019-03-26T09:07:01.000Z</time>
      </trkpt>
      <trkpt lat="44.77327" lon="4.54066">
        <ele>588.88</ele>
        <time>2019-03-26T09:07:21.000Z</time>
      </trkpt>
      <trkpt lat="44.77327" lon="4.54037">
        <ele>591.63</ele>
        <time>2019-03-26T09:07:41.000Z</time>
      </trkpt>
      <trkpt lat="44.77318" lon="4.54014">
        <ele>591.61</ele>
        <time>2019-03-26T09:08:01.000Z</time>
      </trkpt>
      <trkpt lat="44.77304" lon="4.53995">
        <ele>596.84</ele>
        <time>2019-03-26T09:08:21.000Z</time>
      </trkpt>
      <trkpt lat="44.77294" lon="4.53979">
        <ele>598.56</ele>
        <time>2019-03-26T09:08:41.000Z</time>
      </trkpt>
      <trkpt lat="44.77282" lon="4.53964">
        <ele>608.11</ele>
        <time>2019-03-26T09:09:01.000Z</time>
      </trkpt>
      <trkpt lat="44.77274" lon="4.53983">
        <ele>610.39</ele>
        <time>2019-03-26T09:09:21.000Z</time>
      </trkpt>
      <trkpt lat="44.77261" lon="4.5399">
        <ele>608.38</ele>
        <time>2019-03-26T09:09:47.000Z</time>
      </trkpt>
      <trkpt lat="44.77248" lon="4.53981">
        <ele>619.38</ele>
        <time>2019-03-26T09:10:07.000Z</time>
      </trkpt>
      <trkpt lat="44.77241" lon="4.54001">
        <ele>627.85</ele>
        <time>2019-03-26T09:10:27.000Z</time>
      </trkpt>
      <trkpt lat="44.77244" lon="4.54029">
        <ele>627.63</ele>
        <time>2019-03-26T09:10:47.000Z</time>
      </trkpt>
      <trkpt lat="44.77237" lon="4.54046">
        <ele>627.75</ele>
        <time>2019-03-26T09:11:07.000Z</time>
      </trkpt>
      <trkpt lat="44.77219" lon="4.54049">
        <ele>629.65</ele>
        <time>2019-03-26T09:11:27.000Z</time>
      </trkpt>
      <trkpt lat="44.77206" lon="4.54055">
        <ele>627.75</ele>
        <time>2019-03-26T09:11:48.000Z</time>
      </trkpt>
      <trkpt lat="44.77192" lon="4.5407">
        <ele>629.68</ele>
        <time>2019-03-26T09:12:08.000Z</time>
      </trkpt>
      <trkpt lat="44.77183" lon="4.54086">
        <ele>640.32</ele>
        <time>2019-03-26T09:12:28.000Z</time>
      </trkpt>
      <trkpt lat="44.77176" lon="4.54115">
        <ele>631.39</ele>
        <time>2019-03-26T09:12:48.000Z</time>
      </trkpt>
      <trkpt lat="44.77163" lon="4.54136">
        <ele>628.5</ele>
        <time>2019-03-26T09:13:08.000Z</time>
      </trkpt>
      <trkpt lat="44.77142" lon="4.54146">
        <ele>642.31</ele>
        <time>2019-03-26T09:13:28.000Z</time>
      </trkpt>
      <trkpt lat="44.77127" lon="4.54154">
        <ele>642.38</ele>
        <time>2019-03-26T09:13:48.000Z</time>
      </trkpt>
      <trkpt lat="44.77114" lon="4.54173">
        <ele>652.31</ele>
        <time>2019-03-26T09:14:08.000Z</time>
      </trkpt>
      <trkpt lat="44.77104" lon="4.54197">
        <ele>657.62</ele>
        <time>2019-03-26T09:14:28.000Z</time>
      </trkpt>
      <trkpt lat="44.77084" lon="4.54207">
        <ele>659.87</ele>
        <time>2019-03-26T09:14:48.000Z</time>
      </trkpt>
      <trkpt lat="44.77067" lon="4.54211">
        <ele>668.94</ele>
        <time>2019-03-26T09:15:08.000Z</time>
      </trkpt>
      <trkpt lat="44.77057" lon="4.5423">
        <ele>670.87</ele>
        <time>2019-03-26T09:15:28.000Z</time>
      </trkpt>
      <trkpt lat="44.77046" lon="4.5425">
        <ele>672.39</ele>
        <time>2019-03-26T09:15:48.000Z</time>
      </trkpt>
      <trkpt lat="44.77027" lon="4.54265">
        <ele>672.95</ele>
        <time>2019-03-26T09:16:08.000Z</time>
      </trkpt>
      <trkpt lat="44.7702" lon="4.54236">
        <ele>679.5</ele>
        <time>2019-03-26T09:16:28.000Z</time>
      </trkpt>
      <trkpt lat="44.77017" lon="4.54206">
        <ele>681.62</ele>
        <time>2019-03-26T09:16:48.000Z</time>
      </trkpt>
      <trkpt lat="44.77021" lon="4.54172">
        <ele>683.63</ele>
        <time>2019-03-26T09:17:08.000Z</time>
      </trkpt>
      <trkpt lat="44.77018" lon="4.54152">
        <ele>686.11</ele>
        <time>2019-03-26T09:17:31.000Z</time>
      </trkpt>
      <trkpt lat="44.7702" lon="4.54124">
        <ele>682.56</ele>
        <time>2019-03-26T09:17:51.000Z</time>
      </trkpt>
      <trkpt lat="44.77027" lon="4.54091">
        <ele>687.11</ele>
        <time>2019-03-26T09:18:11.000Z</time>
      </trkpt>
      <trkpt lat="44.77025" lon="4.54057">
        <ele>684</ele>
        <time>2019-03-26T09:18:31.000Z</time>
      </trkpt>
      <trkpt lat="44.77022" lon="4.54022">
        <ele>684.88</ele>
        <time>2019-03-26T09:18:51.000Z</time>
      </trkpt>
      <trkpt lat="44.77017" lon="4.53997">
        <ele>685.68</ele>
        <time>2019-03-26T09:19:11.000Z</time>
      </trkpt>
      <trkpt lat="44.77003" lon="4.5396">
        <ele>685.82</ele>
        <time>2019-03-26T09:19:31.000Z</time>
      </trkpt>
      <trkpt lat="44.76992" lon="4.53938">
        <ele>688.39</ele>
        <time>2019-03-26T09:19:51.000Z</time>
      </trkpt>
      <trkpt lat="44.76985" lon="4.53905">
        <ele>695.38</ele>
        <time>2019-03-26T09:20:11.000Z</time>
      </trkpt>
      <trkpt lat="44.76973" lon="4.53878">
        <ele>694.6</ele>
        <time>2019-03-26T09:20:31.000Z</time>
      </trkpt>
      <trkpt lat="44.76961" lon="4.5385">
        <ele>696.94</ele>
        <time>2019-03-26T09:20:51.000Z</time>
      </trkpt>
      <trkpt lat="44.76964" lon="4.53812">
        <ele>702.31</ele>
        <time>2019-03-26T09:21:11.000Z</time>
      </trkpt>
      <trkpt lat="44.76967" lon="4.53781">
        <ele>700.92</ele>
        <time>2019-03-26T09:21:31.000Z</time>
      </trkpt>
      <trkpt lat="44.76972" lon="4.53753">
        <ele>700.62</ele>
        <time>2019-03-26T09:21:51.000Z</time>
      </trkpt>
      <trkpt lat="44.76979" lon="4.53723">
        <ele>702.86</ele>
        <time>2019-03-26T09:22:11.000Z</time>
      </trkpt>
      <trkpt lat="44.76971" lon="4.53744">
        <ele>704.6</ele>
        <time>2019-03-26T09:22:31.000Z</time>
      </trkpt>
      <trkpt lat="44.76956" lon="4.53767">
        <ele>709.85</ele>
        <time>2019-03-26T09:22:51.000Z</time>
      </trkpt>
      <trkpt lat="44.76946" lon="4.53794">
        <ele>714.62</ele>
        <time>2019-03-26T09:23:11.000Z</time>
      </trkpt>
      <trkpt lat="44.76942" lon="4.53819">
        <ele>711.58</ele>
        <time>2019-03-26T09:23:31.000Z</time>
      </trkpt>
      <trkpt lat="44.76941" lon="4.53839">
        <ele>712.69</ele>
        <time>2019-03-26T09:24:05.000Z</time>
      </trkpt>
      <trkpt lat="44.76945" lon="4.53875">
        <ele>715.2</ele>
        <time>2019-03-26T09:24:25.000Z</time>
      </trkpt>
      <trkpt lat="44.76948" lon="4.53906">
        <ele>716.25</ele>
        <time>2019-03-26T09:24:45.000Z</time>
      </trkpt>
      <trkpt lat="44.76953" lon="4.53933">
        <ele>715.57</ele>
        <time>2019-03-26T09:25:05.000Z</time>
      </trkpt>
      <trkpt lat="44.76965" lon="4.53966">
        <ele>715.89</ele>
        <time>2019-03-26T09:25:25.000Z</time>
      </trkpt>
      <trkpt lat="44.76965" lon="4.53997">
        <ele>711.63</ele>
        <time>2019-03-26T09:25:45.000Z</time>
      </trkpt>
      <trkpt lat="44.76963" lon="4.54026">
        <ele>710.51</ele>
        <time>2019-03-26T09:26:05.000Z</time>
      </trkpt>
      <trkpt lat="44.76961" lon="4.54055">
        <ele>709.58</ele>
        <time>2019-03-26T09:26:25.000Z</time>
      </trkpt>
      <trkpt lat="44.76956" lon="4.54081">
        <ele>712.68</ele>
        <time>2019-03-26T09:26:45.000Z</time>
      </trkpt>
      <trkpt lat="44.76948" lon="4.54116">
        <ele>716.38</ele>
        <time>2019-03-26T09:27:05.000Z</time>
      </trkpt>
      <trkpt lat="44.76943" lon="4.54149">
        <ele>716.65</ele>
        <time>2019-03-26T09:27:25.000Z</time>
      </trkpt>
      <trkpt lat="44.76935" lon="4.54182">
        <ele>722.29</ele>
        <time>2019-03-26T09:27:45.000Z</time>
      </trkpt>
      <trkpt lat="44.76928" lon="4.5422">
        <ele>724.65</ele>
        <time>2019-03-26T09:28:05.000Z</time>
      </trkpt>
      <trkpt lat="44.76924" lon="4.54239">
        <ele>724.87</ele>
        <time>2019-03-26T09:28:33.000Z</time>
      </trkpt>
      <trkpt lat="44.76918" lon="4.54267">
        <ele>727.07</ele>
        <time>2019-03-26T09:28:53.000Z</time>
      </trkpt>
      <trkpt lat="44.76908" lon="4.54281">
        <ele>725.38</ele>
        <time>2019-03-26T09:29:17.000Z</time>
      </trkpt>
      <trkpt lat="44.76903" lon="4.54308">
        <ele>728.44</ele>
        <time>2019-03-26T09:29:37.000Z</time>
      </trkpt>
      <trkpt lat="44.76904" lon="4.54327">
        <ele>738.33</ele>
        <time>2019-03-26T09:30:15.000Z</time>
      </trkpt>
      <trkpt lat="44.76898" lon="4.54346">
        <ele>732.45</ele>
        <time>2019-03-26T09:30:53.000Z</time>
      </trkpt>
      <trkpt lat="44.76884" lon="4.54373">
        <ele>744.55</ele>
        <time>2019-03-26T09:31:13.000Z</time>
      </trkpt>
      <trkpt lat="44.76867" lon="4.5439">
        <ele>743.57</ele>
        <time>2019-03-26T09:31:33.000Z</time>
      </trkpt>
      <trkpt lat="44.76847" lon="4.54398">
        <ele>743.66</ele>
        <time>2019-03-26T09:31:53.000Z</time>
      </trkpt>
      <trkpt lat="44.76835" lon="4.54413">
        <ele>745.82</ele>
        <time>2019-03-26T09:32:13.000Z</time>
      </trkpt>
      <trkpt lat="44.76826" lon="4.54448">
        <ele>751.37</ele>
        <time>2019-03-26T09:32:33.000Z</time>
      </trkpt>
      <trkpt lat="44.76809" lon="4.54461">
        <ele>752.72</ele>
        <time>2019-03-26T09:32:53.000Z</time>
      </trkpt>
      <trkpt lat="44.76791" lon="4.5445">
        <ele>753.64</ele>
        <time>2019-03-26T09:33:13.000Z</time>
      </trkpt>
      <trkpt lat="44.76801" lon="4.54464">
        <ele>753.65</ele>
        <time>2019-03-26T09:33:51.000Z</time>
      </trkpt>
      <trkpt lat="44.76809" lon="4.54441">
        <ele>755.83</ele>
        <time>2019-03-26T09:34:11.000Z</time>
      </trkpt>
      <trkpt lat="44.76806" lon="4.54409">
        <ele>753.89</ele>
        <time>2019-03-26T09:34:31.000Z</time>
      </trkpt>
      <trkpt lat="44.76798" lon="4.54377">
        <ele>757.68</ele>
        <time>2019-03-26T09:34:51.000Z</time>
      </trkpt>
      <trkpt lat="44.7678" lon="4.54356">
        <ele>759.71</ele>
        <time>2019-03-26T09:35:11.000Z</time>
      </trkpt>
      <trkpt lat="44.76756" lon="4.54345">
        <ele>759.57</ele>
        <time>2019-03-26T09:35:31.000Z</time>
      </trkpt>
      <trkpt lat="44.7673" lon="4.54337">
        <ele>763.68</ele>
        <time>2019-03-26T09:35:51.000Z</time>
      </trkpt>
      <trkpt lat="44.76709" lon="4.54324">
        <ele>759.91</ele>
        <time>2019-03-26T09:36:11.000Z</time>
      </trkpt>
      <trkpt lat="44.76688" lon="4.54301">
        <ele>756.62</ele>
        <time>2019-03-26T09:36:31.000Z</time>
      </trkpt>
      <trkpt lat="44.76671" lon="4.54279">
        <ele>755.39</ele>
        <time>2019-03-26T09:36:51.000Z</time>
      </trkpt>
      <trkpt lat="44.76651" lon="4.54254">
        <ele>760.52</ele>
        <time>2019-03-26T09:37:11.000Z</time>
      </trkpt>
      <trkpt lat="44.76637" lon="4.54231">
        <ele>756.66</ele>
        <time>2019-03-26T09:37:31.000Z</time>
      </trkpt>
      <trkpt lat="44.76615" lon="4.54209">
        <ele>757.63</ele>
        <time>2019-03-26T09:37:51.000Z</time>
      </trkpt>
      <trkpt lat="44.76592" lon="4.54194">
        <ele>757.63</ele>
        <time>2019-03-26T09:38:11.000Z</time>
      </trkpt>
      <trkpt lat="44.7657" lon="4.54177">
        <ele>759.37</ele>
        <time>2019-03-26T09:38:31.000Z</time>
      </trkpt>
      <trkpt lat="44.76549" lon="4.54166">
        <ele>755.74</ele>
        <time>2019-03-26T09:38:51.000Z</time>
      </trkpt>
      <trkpt lat="44.76526" lon="4.54154">
        <ele>753.95</ele>
        <time>2019-03-26T09:39:11.000Z</time>
      </trkpt>
      <trkpt lat="44.76502" lon="4.5415">
        <ele>748.89</ele>
        <time>2019-03-26T09:39:31.000Z</time>
      </trkpt>
      <trkpt lat="44.76489" lon="4.54137">
        <ele>745.73</ele>
        <time>2019-03-26T09:39:51.000Z</time>
      </trkpt>
      <trkpt lat="44.76481" lon="4.54121">
        <ele>748.72</ele>
        <time>2019-03-26T09:40:28.000Z</time>
      </trkpt>
      <trkpt lat="44.76466" lon="4.54092">
        <ele>743.7</ele>
        <time>2019-03-26T09:40:48.000Z</time>
      </trkpt>
      <trkpt lat="44.76453" lon="4.54081">
        <ele>746.63</ele>
        <time>2019-03-26T09:41:08.000Z</time>
      </trkpt>
      <trkpt lat="44.76442" lon="4.54069">
        <ele>740.57</ele>
        <time>2019-03-26T09:42:18.000Z</time>
      </trkpt>
      <trkpt lat="44.7642" lon="4.5404">
        <ele>745.82</ele>
        <time>2019-03-26T09:42:38.000Z</time>
      </trkpt>
      <trkpt lat="44.76406" lon="4.54013">
        <ele>748.64</ele>
        <time>2019-03-26T09:42:58.000Z</time>
      </trkpt>
      <trkpt lat="44.7639" lon="4.53987">
        <ele>744.82</ele>
        <time>2019-03-26T09:43:18.000Z</time>
      </trkpt>
      <trkpt lat="44.76372" lon="4.53958">
        <ele>744.88</ele>
        <time>2019-03-26T09:43:38.000Z</time>
      </trkpt>
      <trkpt lat="44.76364" lon="4.5394">
        <ele>749.65</ele>
        <time>2019-03-26T09:44:00.000Z</time>
      </trkpt>
      <trkpt lat="44.76368" lon="4.53903">
        <ele>754.56</ele>
        <time>2019-03-26T09:44:20.000Z</time>
      </trkpt>
      <trkpt lat="44.76377" lon="4.53872">
        <ele>760.38</ele>
        <time>2019-03-26T09:44:40.000Z</time>
      </trkpt>
      <trkpt lat="44.76379" lon="4.53844">
        <ele>762.58</ele>
        <time>2019-03-26T09:45:00.000Z</time>
      </trkpt>
      <trkpt lat="44.76381" lon="4.5381">
        <ele>762.82</ele>
        <time>2019-03-26T09:45:20.000Z</time>
      </trkpt>
      <trkpt lat="44.76391" lon="4.53782">
        <ele>760.69</ele>
        <time>2019-03-26T09:45:40.000Z</time>
      </trkpt>
      <trkpt lat="44.76404" lon="4.53776">
        <ele>764.75</ele>
        <time>2019-03-26T09:46:23.000Z</time>
      </trkpt>
      <trkpt lat="44.76419" lon="4.53748">
        <ele>761.88</ele>
        <time>2019-03-26T09:46:43.000Z</time>
      </trkpt>
      <trkpt lat="44.76428" lon="4.53712">
        <ele>761.93</ele>
        <time>2019-03-26T09:47:03.000Z</time>
      </trkpt>
      <trkpt lat="44.7643" lon="4.53675">
        <ele>758.63</ele>
        <time>2019-03-26T09:47:23.000Z</time>
      </trkpt>
      <trkpt lat="44.76431" lon="4.53639">
        <ele>758.89</ele>
        <time>2019-03-26T09:47:43.000Z</time>
      </trkpt>
      <trkpt lat="44.76431" lon="4.53609">
        <ele>760.94</ele>
        <time>2019-03-26T09:48:03.000Z</time>
      </trkpt>
      <trkpt lat="44.76431" lon="4.53569">
        <ele>764.61</ele>
        <time>2019-03-26T09:48:23.000Z</time>
      </trkpt>
      <trkpt lat="44.76433" lon="4.53538">
        <ele>766.31</ele>
        <time>2019-03-26T09:48:43.000Z</time>
      </trkpt>
      <trkpt lat="44.76431" lon="4.53501">
        <ele>762.45</ele>
        <time>2019-03-26T09:49:03.000Z</time>
      </trkpt>
      <trkpt lat="44.76429" lon="4.53466">
        <ele>763.7</ele>
        <time>2019-03-26T09:49:23.000Z</time>
      </trkpt>
      <trkpt lat="44.76426" lon="4.53428">
        <ele>762.63</ele>
        <time>2019-03-26T09:49:43.000Z</time>
      </trkpt>
      <trkpt lat="44.76421" lon="4.53392">
        <ele>763.62</ele>
        <time>2019-03-26T09:50:03.000Z</time>
      </trkpt>
      <trkpt lat="44.76415" lon="4.53359">
        <ele>764.85</ele>
        <time>2019-03-26T09:50:23.000Z</time>
      </trkpt>
      <trkpt lat="44.76408" lon="4.53329">
        <ele>763.62</ele>
        <time>2019-03-26T09:50:43.000Z</time>
      </trkpt>
      <trkpt lat="44.76417" lon="4.53312">
        <ele>760.63</ele>
        <time>2019-03-26T09:51:03.000Z</time>
      </trkpt>
      <trkpt lat="44.76415" lon="4.53293">
        <ele>764.62</ele>
        <time>2019-03-26T09:52:12.000Z</time>
      </trkpt>
      <trkpt lat="44.76431" lon="4.53285">
        <ele>762.63</ele>
        <time>2019-03-26T09:52:32.000Z</time>
      </trkpt>
      <trkpt lat="44.76444" lon="4.53275">
        <ele>758.32</ele>
        <time>2019-03-26T09:52:52.000Z</time>
      </trkpt>
      <trkpt lat="44.76444" lon="4.53256">
        <ele>765.57</ele>
        <time>2019-03-26T09:53:41.000Z</time>
      </trkpt>
      <trkpt lat="44.76439" lon="4.53219">
        <ele>764.56</ele>
        <time>2019-03-26T09:54:01.000Z</time>
      </trkpt>
      <trkpt lat="44.76431" lon="4.53185">
        <ele>760.69</ele>
        <time>2019-03-26T09:54:21.000Z</time>
      </trkpt>
      <trkpt lat="44.76418" lon="4.53156">
        <ele>758.43</ele>
        <time>2019-03-26T09:54:41.000Z</time>
      </trkpt>
      <trkpt lat="44.7641" lon="4.53127">
        <ele>759.87</ele>
        <time>2019-03-26T09:55:01.000Z</time>
      </trkpt>
      <trkpt lat="44.76398" lon="4.53095">
        <ele>760.6</ele>
        <time>2019-03-26T09:55:21.000Z</time>
      </trkpt>
      <trkpt lat="44.76391" lon="4.53059">
        <ele>763.86</ele>
        <time>2019-03-26T09:55:41.000Z</time>
      </trkpt>
      <trkpt lat="44.764" lon="4.53028">
        <ele>758.86</ele>
        <time>2019-03-26T09:56:01.000Z</time>
      </trkpt>
      <trkpt lat="44.76397" lon="4.52989">
        <ele>758.35</ele>
        <time>2019-03-26T09:56:21.000Z</time>
      </trkpt>
      <trkpt lat="44.76387" lon="4.52965">
        <ele>755.63</ele>
        <time>2019-03-26T09:56:41.000Z</time>
      </trkpt>
      <trkpt lat="44.76367" lon="4.52946">
        <ele>753.67</ele>
        <time>2019-03-26T09:57:01.000Z</time>
      </trkpt>
      <trkpt lat="44.76351" lon="4.52923">
        <ele>754.63</ele>
        <time>2019-03-26T09:57:21.000Z</time>
      </trkpt>
      <trkpt lat="44.76328" lon="4.52904">
        <ele>758.67</ele>
        <time>2019-03-26T09:57:41.000Z</time>
      </trkpt>
      <trkpt lat="44.76305" lon="4.52893">
        <ele>761.85</ele>
        <time>2019-03-26T09:58:01.000Z</time>
      </trkpt>
      <trkpt lat="44.76282" lon="4.52885">
        <ele>765.55</ele>
        <time>2019-03-26T09:58:21.000Z</time>
      </trkpt>
      <trkpt lat="44.7628" lon="4.5286">
        <ele>769.3</ele>
        <time>2019-03-26T09:58:41.000Z</time>
      </trkpt>
      <trkpt lat="44.76296" lon="4.52853">
        <ele>766.67</ele>
        <time>2019-03-26T09:59:01.000Z</time>
      </trkpt>
      <trkpt lat="44.76282" lon="4.52832">
        <ele>772.59</ele>
        <time>2019-03-26T09:59:21.000Z</time>
      </trkpt>
      <trkpt lat="44.7627" lon="4.528">
        <ele>777.79</ele>
        <time>2019-03-26T09:59:41.000Z</time>
      </trkpt>
      <trkpt lat="44.76258" lon="4.52773">
        <ele>779.54</ele>
        <time>2019-03-26T10:00:01.000Z</time>
      </trkpt>
      <trkpt lat="44.76254" lon="4.52743">
        <ele>785.61</ele>
        <time>2019-03-26T10:00:21.000Z</time>
      </trkpt>
      <trkpt lat="44.76251" lon="4.52707">
        <ele>786.59</ele>
        <time>2019-03-26T10:00:41.000Z</time>
      </trkpt>
      <trkpt lat="44.76247" lon="4.52679">
        <ele>789.61</ele>
        <time>2019-03-26T10:01:01.000Z</time>
      </trkpt>
      <trkpt lat="44.76239" lon="4.52644">
        <ele>793.34</ele>
        <time>2019-03-26T10:01:21.000Z</time>
      </trkpt>
      <trkpt lat="44.76231" lon="4.52607">
        <ele>793.92</ele>
        <time>2019-03-26T10:01:41.000Z</time>
      </trkpt>
      <trkpt lat="44.76227" lon="4.52571">
        <ele>799.09</ele>
        <time>2019-03-26T10:02:01.000Z</time>
      </trkpt>
      <trkpt lat="44.76219" lon="4.52542">
        <ele>801.28</ele>
        <time>2019-03-26T10:02:21.000Z</time>
      </trkpt>
      <trkpt lat="44.76211" lon="4.52505">
        <ele>802.59</ele>
        <time>2019-03-26T10:02:41.000Z</time>
      </trkpt>
      <trkpt lat="44.76203" lon="4.52489">
        <ele>805.67</ele>
        <time>2019-03-26T10:03:06.000Z</time>
      </trkpt>
      <trkpt lat="44.76199" lon="4.52464">
        <ele>803.11</ele>
        <time>2019-03-26T10:03:26.000Z</time>
      </trkpt>
      <trkpt lat="44.76206" lon="4.52447">
        <ele>808.37</ele>
        <time>2019-03-26T10:03:49.000Z</time>
      </trkpt>
      <trkpt lat="44.76203" lon="4.52426">
        <ele>808.38</ele>
        <time>2019-03-26T10:04:09.000Z</time>
      </trkpt>
      <trkpt lat="44.76215" lon="4.52416">
        <ele>802.6</ele>
        <time>2019-03-26T10:05:09.000Z</time>
      </trkpt>
      <trkpt lat="44.76228" lon="4.52409">
        <ele>804.35</ele>
        <time>2019-03-26T10:06:22.000Z</time>
      </trkpt>
      <trkpt lat="44.7624" lon="4.52395">
        <ele>810.25</ele>
        <time>2019-03-26T10:06:42.000Z</time>
      </trkpt>
      <trkpt lat="44.76251" lon="4.5238">
        <ele>814.59</ele>
        <time>2019-03-26T10:07:02.000Z</time>
      </trkpt>
      <trkpt lat="44.76251" lon="4.52352">
        <ele>818.54</ele>
        <time>2019-03-26T10:07:22.000Z</time>
      </trkpt>
      <trkpt lat="44.76249" lon="4.52328">
        <ele>818.6</ele>
        <time>2019-03-26T10:07:42.000Z</time>
      </trkpt>
      <trkpt lat="44.76252" lon="4.52303">
        <ele>815.93</ele>
        <time>2019-03-26T10:08:02.000Z</time>
      </trkpt>
      <trkpt lat="44.76253" lon="4.52282">
        <ele>813.85</ele>
        <time>2019-03-26T10:08:22.000Z</time>
      </trkpt>
      <trkpt lat="44.76251" lon="4.52255">
        <ele>814.39</ele>
        <time>2019-03-26T10:08:42.000Z</time>
      </trkpt>
      <trkpt lat="44.76243" lon="4.52228">
        <ele>819.35</ele>
        <time>2019-03-26T10:09:02.000Z</time>
      </trkpt>
      <trkpt lat="44.76237" lon="4.52204">
        <ele>825.85</ele>
        <time>2019-03-26T10:09:22.000Z</time>
      </trkpt>
      <trkpt lat="44.7623" lon="4.52173">
        <ele>830.59</ele>
        <time>2019-03-26T10:09:42.000Z</time>
      </trkpt>
      <trkpt lat="44.76222" lon="4.52148">
        <ele>844.58</ele>
        <time>2019-03-26T10:10:02.000Z</time>
      </trkpt>
      <trkpt lat="44.76221" lon="4.52118">
        <ele>847.59</ele>
        <time>2019-03-26T10:10:22.000Z</time>
      </trkpt>
      <trkpt lat="44.76222" lon="4.52099">
        <ele>850.58</ele>
        <time>2019-03-26T10:10:42.000Z</time>
      </trkpt>
      <trkpt lat="44.76225" lon="4.52078">
        <ele>856.91</ele>
        <time>2019-03-26T10:11:02.000Z</time>
      </trkpt>
      <trkpt lat="44.76236" lon="4.52065">
        <ele>857.54</ele>
        <time>2019-03-26T10:11:24.000Z</time>
      </trkpt>
      <trkpt lat="44.76241" lon="4.52048">
        <ele>863.61</ele>
        <time>2019-03-26T10:12:04.000Z</time>
      </trkpt>
      <trkpt lat="44.76242" lon="4.52029">
        <ele>870.84</ele>
        <time>2019-03-26T10:12:35.000Z</time>
      </trkpt>
      <trkpt lat="44.76247" lon="4.5201">
        <ele>882.35</ele>
        <time>2019-03-26T10:13:08.000Z</time>
      </trkpt>
      <trkpt lat="44.76242" lon="4.51991">
        <ele>887.58</ele>
        <time>2019-03-26T10:13:29.000Z</time>
      </trkpt>
      <trkpt lat="44.76233" lon="4.51976">
        <ele>884.77</ele>
        <time>2019-03-26T10:15:45.000Z</time>
      </trkpt>
      <trkpt lat="44.76225" lon="4.51961">
        <ele>893.15</ele>
        <time>2019-03-26T10:16:18.000Z</time>
      </trkpt>
      <trkpt lat="44.76208" lon="4.51946">
        <ele>892.55</ele>
        <time>2019-03-26T10:16:38.000Z</time>
      </trkpt>
      <trkpt lat="44.76191" lon="4.51933">
        <ele>887.35</ele>
        <time>2019-03-26T10:16:58.000Z</time>
      </trkpt>
      <trkpt lat="44.76173" lon="4.51916">
        <ele>885.09</ele>
        <time>2019-03-26T10:17:18.000Z</time>
      </trkpt>
      <trkpt lat="44.7615" lon="4.519">
        <ele>887.33</ele>
        <time>2019-03-26T10:17:38.000Z</time>
      </trkpt>
      <trkpt lat="44.76133" lon="4.51889">
        <ele>884.61</ele>
        <time>2019-03-26T10:17:58.000Z</time>
      </trkpt>
      <trkpt lat="44.76111" lon="4.51877">
        <ele>891.58</ele>
        <time>2019-03-26T10:18:18.000Z</time>
      </trkpt>
      <trkpt lat="44.7609" lon="4.51861">
        <ele>893.65</ele>
        <time>2019-03-26T10:18:38.000Z</time>
      </trkpt>
      <trkpt lat="44.76076" lon="4.51852">
        <ele>888.71</ele>
        <time>2019-03-26T10:18:58.000Z</time>
      </trkpt>
      <trkpt lat="44.76058" lon="4.51845">
        <ele>885.87</ele>
        <time>2019-03-26T10:19:18.000Z</time>
      </trkpt>
      <trkpt lat="44.76039" lon="4.51838">
        <ele>885.09</ele>
        <time>2019-03-26T10:19:38.000Z</time>
      </trkpt>
      <trkpt lat="44.76021" lon="4.51836">
        <ele>887.6</ele>
        <time>2019-03-26T10:19:58.000Z</time>
      </trkpt>
      <trkpt lat="44.76001" lon="4.51831">
        <ele>892.54</ele>
        <time>2019-03-26T10:20:18.000Z</time>
      </trkpt>
      <trkpt lat="44.7598" lon="4.51828">
        <ele>891.53</ele>
        <time>2019-03-26T10:20:38.000Z</time>
      </trkpt>
      <trkpt lat="44.75959" lon="4.51817">
        <ele>896.66</ele>
        <time>2019-03-26T10:20:58.000Z</time>
      </trkpt>
      <trkpt lat="44.75942" lon="4.51821">
        <ele>891.37</ele>
        <time>2019-03-26T10:21:18.000Z</time>
      </trkpt>
      <trkpt lat="44.75928" lon="4.51821">
        <ele>899.27</ele>
        <time>2019-03-26T10:21:44.000Z</time>
      </trkpt>
      <trkpt lat="44.75906" lon="4.51819">
        <ele>894.16</ele>
        <time>2019-03-26T10:22:04.000Z</time>
      </trkpt>
      <trkpt lat="44.75886" lon="4.51815">
        <ele>898.35</ele>
        <time>2019-03-26T10:22:24.000Z</time>
      </trkpt>
      <trkpt lat="44.75861" lon="4.51821">
        <ele>896.54</ele>
        <time>2019-03-26T10:22:44.000Z</time>
      </trkpt>
      <trkpt lat="44.75841" lon="4.51813">
        <ele>893.6</ele>
        <time>2019-03-26T10:23:04.000Z</time>
      </trkpt>
      <trkpt lat="44.75829" lon="4.518">
        <ele>896.91</ele>
        <time>2019-03-26T10:23:24.000Z</time>
      </trkpt>
      <trkpt lat="44.75835" lon="4.51782">
        <ele>897.76</ele>
        <time>2019-03-26T10:23:48.000Z</time>
      </trkpt>
      <trkpt lat="44.75839" lon="4.51763">
        <ele>898.34</ele>
        <time>2019-03-26T10:24:08.000Z</time>
      </trkpt>
      <trkpt lat="44.75846" lon="4.51747">
        <ele>903.39</ele>
        <time>2019-03-26T10:24:28.000Z</time>
      </trkpt>
      <trkpt lat="44.75852" lon="4.51729">
        <ele>909.76</ele>
        <time>2019-03-26T10:24:49.000Z</time>
      </trkpt>
      <trkpt lat="44.75861" lon="4.51714">
        <ele>910.8</ele>
        <time>2019-03-26T10:25:09.000Z</time>
      </trkpt>
      <trkpt lat="44.7586" lon="4.51694">
        <ele>915.69</ele>
        <time>2019-03-26T10:25:33.000Z</time>
      </trkpt>
      <trkpt lat="44.75853" lon="4.51677">
        <ele>920.64</ele>
        <time>2019-03-26T10:26:00.000Z</time>
      </trkpt>
      <trkpt lat="44.75842" lon="4.51655">
        <ele>923.23</ele>
        <time>2019-03-26T10:26:20.000Z</time>
      </trkpt>
      <trkpt lat="44.75839" lon="4.51637">
        <ele>925.9</ele>
        <time>2019-03-26T10:26:42.000Z</time>
      </trkpt>
      <trkpt lat="44.75828" lon="4.51614">
        <ele>921.29</ele>
        <time>2019-03-26T10:27:02.000Z</time>
      </trkpt>
      <trkpt lat="44.75811" lon="4.51592">
        <ele>922.78</ele>
        <time>2019-03-26T10:27:22.000Z</time>
      </trkpt>
      <trkpt lat="44.75805" lon="4.51575">
        <ele>920.61</ele>
        <time>2019-03-26T10:27:51.000Z</time>
      </trkpt>
      <trkpt lat="44.75802" lon="4.51549">
        <ele>916.65</ele>
        <time>2019-03-26T10:28:11.000Z</time>
      </trkpt>
      <trkpt lat="44.75797" lon="4.5153">
        <ele>912.41</ele>
        <time>2019-03-26T10:31:32.000Z</time>
      </trkpt>
      <trkpt lat="44.75798" lon="4.51502">
        <ele>910.58</ele>
        <time>2019-03-26T10:31:52.000Z</time>
      </trkpt>
      <trkpt lat="44.75787" lon="4.5147">
        <ele>910.84</ele>
        <time>2019-03-26T10:32:12.000Z</time>
      </trkpt>
      <trkpt lat="44.7577" lon="4.51451">
        <ele>906.34</ele>
        <time>2019-03-26T10:32:32.000Z</time>
      </trkpt>
      <trkpt lat="44.75749" lon="4.51426">
        <ele>907.34</ele>
        <time>2019-03-26T10:32:52.000Z</time>
      </trkpt>
      <trkpt lat="44.75736" lon="4.51398">
        <ele>903.58</ele>
        <time>2019-03-26T10:33:12.000Z</time>
      </trkpt>
      <trkpt lat="44.75741" lon="4.51371">
        <ele>899.65</ele>
        <time>2019-03-26T10:33:32.000Z</time>
      </trkpt>
      <trkpt lat="44.75749" lon="4.5134">
        <ele>899.84</ele>
        <time>2019-03-26T10:33:52.000Z</time>
      </trkpt>
      <trkpt lat="44.75758" lon="4.51314">
        <ele>893.84</ele>
        <time>2019-03-26T10:34:12.000Z</time>
      </trkpt>
      <trkpt lat="44.75765" lon="4.51296">
        <ele>896.6</ele>
        <time>2019-03-26T10:34:51.000Z</time>
      </trkpt>
      <trkpt lat="44.75765" lon="4.51262">
        <ele>895.82</ele>
        <time>2019-03-26T10:35:11.000Z</time>
      </trkpt>
      <trkpt lat="44.75759" lon="4.51232">
        <ele>891.65</ele>
        <time>2019-03-26T10:35:31.000Z</time>
      </trkpt>
      <trkpt lat="44.75747" lon="4.51201">
        <ele>886.58</ele>
        <time>2019-03-26T10:35:51.000Z</time>
      </trkpt>
      <trkpt lat="44.75733" lon="4.51173">
        <ele>888.53</ele>
        <time>2019-03-26T10:36:11.000Z</time>
      </trkpt>
      <trkpt lat="44.75729" lon="4.51148">
        <ele>886.73</ele>
        <time>2019-03-26T10:36:31.000Z</time>
      </trkpt>
      <trkpt lat="44.75724" lon="4.51114">
        <ele>887.57</ele>
        <time>2019-03-26T10:36:51.000Z</time>
      </trkpt>
      <trkpt lat="44.75718" lon="4.5108">
        <ele>886.6</ele>
        <time>2019-03-26T10:37:11.000Z</time>
      </trkpt>
      <trkpt lat="44.75705" lon="4.51059">
        <ele>885.55</ele>
        <time>2019-03-26T10:37:31.000Z</time>
      </trkpt>
      <trkpt lat="44.75682" lon="4.51041">
        <ele>883.51</ele>
        <time>2019-03-26T10:37:51.000Z</time>
      </trkpt>
      <trkpt lat="44.7566" lon="4.51024">
        <ele>881.47</ele>
        <time>2019-03-26T10:38:11.000Z</time>
      </trkpt>
      <trkpt lat="44.75646" lon="4.51017">
        <ele>876.9</ele>
        <time>2019-03-26T10:38:31.000Z</time>
      </trkpt>
      <trkpt lat="44.75657" lon="4.51045">
        <ele>874.57</ele>
        <time>2019-03-26T10:38:51.000Z</time>
      </trkpt>
      <trkpt lat="44.75669" lon="4.51074">
        <ele>875.15</ele>
        <time>2019-03-26T10:39:11.000Z</time>
      </trkpt>
      <trkpt lat="44.75677" lon="4.51105">
        <ele>876.83</ele>
        <time>2019-03-26T10:39:31.000Z</time>
      </trkpt>
      <trkpt lat="44.75685" lon="4.51139">
        <ele>874.63</ele>
        <time>2019-03-26T10:39:51.000Z</time>
      </trkpt>
      <trkpt lat="44.75682" lon="4.51175">
        <ele>872.07</ele>
        <time>2019-03-26T10:40:11.000Z</time>
      </trkpt>
      <trkpt lat="44.75674" lon="4.51205">
        <ele>871.83</ele>
        <time>2019-03-26T10:40:31.000Z</time>
      </trkpt>
      <trkpt lat="44.75667" lon="4.51236">
        <ele>874.78</ele>
        <time>2019-03-26T10:40:51.000Z</time>
      </trkpt>
      <trkpt lat="44.75657" lon="4.51263">
        <ele>865.61</ele>
        <time>2019-03-26T10:41:11.000Z</time>
      </trkpt>
      <trkpt lat="44.75637" lon="4.51285">
        <ele>860.65</ele>
        <time>2019-03-26T10:41:31.000Z</time>
      </trkpt>
      <trkpt lat="44.7562" lon="4.51308">
        <ele>857.51</ele>
        <time>2019-03-26T10:41:51.000Z</time>
      </trkpt>
      <trkpt lat="44.75607" lon="4.51337">
        <ele>851.84</ele>
        <time>2019-03-26T10:42:11.000Z</time>
      </trkpt>
      <trkpt lat="44.75593" lon="4.51364">
        <ele>846.67</ele>
        <time>2019-03-26T10:42:31.000Z</time>
      </trkpt>
      <trkpt lat="44.75582" lon="4.51393">
        <ele>847.16</ele>
        <time>2019-03-26T10:42:51.000Z</time>
      </trkpt>
      <trkpt lat="44.75576" lon="4.5142">
        <ele>839.66</ele>
        <time>2019-03-26T10:43:11.000Z</time>
      </trkpt>
      <trkpt lat="44.75572" lon="4.51444">
        <ele>833.95</ele>
        <time>2019-03-26T10:43:31.000Z</time>
      </trkpt>
      <trkpt lat="44.75569" lon="4.51477">
        <ele>829.02</ele>
        <time>2019-03-26T10:43:51.000Z</time>
      </trkpt>
      <trkpt lat="44.75557" lon="4.51487">
        <ele>828.61</ele>
        <time>2019-03-26T10:44:14.000Z</time>
      </trkpt>
      <trkpt lat="44.75543" lon="4.5151">
        <ele>819.41</ele>
        <time>2019-03-26T10:44:34.000Z</time>
      </trkpt>
      <trkpt lat="44.75533" lon="4.51539">
        <ele>814.9</ele>
        <time>2019-03-26T10:44:54.000Z</time>
      </trkpt>
      <trkpt lat="44.7552" lon="4.51555">
        <ele>810.9</ele>
        <time>2019-03-26T10:45:14.000Z</time>
      </trkpt>
      <trkpt lat="44.75499" lon="4.51574">
        <ele>811.35</ele>
        <time>2019-03-26T10:45:34.000Z</time>
      </trkpt>
      <trkpt lat="44.7548" lon="4.51584">
        <ele>809.78</ele>
        <time>2019-03-26T10:45:54.000Z</time>
      </trkpt>
      <trkpt lat="44.75457" lon="4.5158">
        <ele>802.35</ele>
        <time>2019-03-26T10:46:14.000Z</time>
      </trkpt>
      <trkpt lat="44.75441" lon="4.51604">
        <ele>804.32</ele>
        <time>2019-03-26T10:46:34.000Z</time>
      </trkpt>
      <trkpt lat="44.75419" lon="4.51598">
        <ele>799.36</ele>
        <time>2019-03-26T10:46:54.000Z</time>
      </trkpt>
      <trkpt lat="44.75402" lon="4.51583">
        <ele>795.74</ele>
        <time>2019-03-26T10:47:14.000Z</time>
      </trkpt>
      <trkpt lat="44.7539" lon="4.51603">
        <ele>796.58</ele>
        <time>2019-03-26T10:47:34.000Z</time>
      </trkpt>
      <trkpt lat="44.75369" lon="4.51605">
        <ele>793.29</ele>
        <time>2019-03-26T10:47:54.000Z</time>
      </trkpt>
      <trkpt lat="44.75351" lon="4.5158">
        <ele>792.34</ele>
        <time>2019-03-26T10:48:14.000Z</time>
      </trkpt>
      <trkpt lat="44.75357" lon="4.51551">
        <ele>787.89</ele>
        <time>2019-03-26T10:48:34.000Z</time>
      </trkpt>
      <trkpt lat="44.75358" lon="4.5152">
        <ele>787.34</ele>
        <time>2019-03-26T10:48:54.000Z</time>
      </trkpt>
      <trkpt lat="44.75367" lon="4.51484">
        <ele>790.78</ele>
        <time>2019-03-26T10:49:14.000Z</time>
      </trkpt>
      <trkpt lat="44.75377" lon="4.51448">
        <ele>792.53</ele>
        <time>2019-03-26T10:49:34.000Z</time>
      </trkpt>
      <trkpt lat="44.75363" lon="4.51459">
        <ele>784.78</ele>
        <time>2019-03-26T10:49:54.000Z</time>
      </trkpt>
      <trkpt lat="44.75346" lon="4.51489">
        <ele>778.46</ele>
        <time>2019-03-26T10:50:14.000Z</time>
      </trkpt>
      <trkpt lat="44.75329" lon="4.51505">
        <ele>776.09</ele>
        <time>2019-03-26T10:50:34.000Z</time>
      </trkpt>
      <trkpt lat="44.75305" lon="4.51521">
        <ele>765.64</ele>
        <time>2019-03-26T10:50:54.000Z</time>
      </trkpt>
      <trkpt lat="44.7528" lon="4.51528">
        <ele>766.84</ele>
        <time>2019-03-26T10:51:14.000Z</time>
      </trkpt>
      <trkpt lat="44.7526" lon="4.51532">
        <ele>767.83</ele>
        <time>2019-03-26T10:51:34.000Z</time>
      </trkpt>
      <trkpt lat="44.7524" lon="4.5154">
        <ele>766.79</ele>
        <time>2019-03-26T10:51:54.000Z</time>
      </trkpt>
      <trkpt lat="44.75218" lon="4.5155">
        <ele>760.42</ele>
        <time>2019-03-26T10:52:14.000Z</time>
      </trkpt>
      <trkpt lat="44.75197" lon="4.51565">
        <ele>760.09</ele>
        <time>2019-03-26T10:52:34.000Z</time>
      </trkpt>
      <trkpt lat="44.75173" lon="4.51582">
        <ele>758.36</ele>
        <time>2019-03-26T10:52:54.000Z</time>
      </trkpt>
      <trkpt lat="44.75145" lon="4.51595">
        <ele>753.59</ele>
        <time>2019-03-26T10:53:14.000Z</time>
      </trkpt>
      <trkpt lat="44.75122" lon="4.51592">
        <ele>751.65</ele>
        <time>2019-03-26T10:53:34.000Z</time>
      </trkpt>
      <trkpt lat="44.75102" lon="4.51594">
        <ele>753.58</ele>
        <time>2019-03-26T10:53:54.000Z</time>
      </trkpt>
      <trkpt lat="44.75081" lon="4.51594">
        <ele>749.64</ele>
        <time>2019-03-26T10:54:14.000Z</time>
      </trkpt>
      <trkpt lat="44.75059" lon="4.51602">
        <ele>749.41</ele>
        <time>2019-03-26T10:54:34.000Z</time>
      </trkpt>
      <trkpt lat="44.75039" lon="4.5162">
        <ele>745.66</ele>
        <time>2019-03-26T10:54:54.000Z</time>
      </trkpt>
      <trkpt lat="44.75019" lon="4.51625">
        <ele>740.4</ele>
        <time>2019-03-26T10:55:14.000Z</time>
      </trkpt>
      <trkpt lat="44.74993" lon="4.51631">
        <ele>734.4</ele>
        <time>2019-03-26T10:55:34.000Z</time>
      </trkpt>
      <trkpt lat="44.74972" lon="4.51652">
        <ele>735.66</ele>
        <time>2019-03-26T10:55:54.000Z</time>
      </trkpt>
      <trkpt lat="44.74974" lon="4.51678">
        <ele>732.6</ele>
        <time>2019-03-26T10:56:14.000Z</time>
      </trkpt>
      <trkpt lat="44.74965" lon="4.51693">
        <ele>735.67</ele>
        <time>2019-03-26T10:56:42.000Z</time>
      </trkpt>
      <trkpt lat="44.74943" lon="4.517">
        <ele>732.6</ele>
        <time>2019-03-26T10:57:02.000Z</time>
      </trkpt>
      <trkpt lat="44.74922" lon="4.51687">
        <ele>728.6</ele>
        <time>2019-03-26T10:57:22.000Z</time>
      </trkpt>
      <trkpt lat="44.74907" lon="4.51664">
        <ele>731.79</ele>
        <time>2019-03-26T10:57:42.000Z</time>
      </trkpt>
      <trkpt lat="44.74901" lon="4.51681">
        <ele>728.88</ele>
        <time>2019-03-26T10:58:04.000Z</time>
      </trkpt>
      <trkpt lat="44.74911" lon="4.5171">
        <ele>724.85</ele>
        <time>2019-03-26T10:58:24.000Z</time>
      </trkpt>
      <trkpt lat="44.74891" lon="4.51709">
        <ele>723.44</ele>
        <time>2019-03-26T10:58:44.000Z</time>
      </trkpt>
      <trkpt lat="44.74873" lon="4.5169">
        <ele>715.74</ele>
        <time>2019-03-26T10:59:04.000Z</time>
      </trkpt>
      <trkpt lat="44.74857" lon="4.51678">
        <ele>713.91</ele>
        <time>2019-03-26T10:59:24.000Z</time>
      </trkpt>
      <trkpt lat="44.74839" lon="4.51663">
        <ele>713.6</ele>
        <time>2019-03-26T10:59:44.000Z</time>
      </trkpt>
      <trkpt lat="44.74816" lon="4.51641">
        <ele>712.35</ele>
        <time>2019-03-26T11:00:04.000Z</time>
      </trkpt>
      <trkpt lat="44.74808" lon="4.51657">
        <ele>709.23</ele>
        <time>2019-03-26T11:00:45.000Z</time>
      </trkpt>
      <trkpt lat="44.74816" lon="4.51675">
        <ele>710.2</ele>
        <time>2019-03-26T11:01:08.000Z</time>
      </trkpt>
      <trkpt lat="44.74825" lon="4.51694">
        <ele>708.6</ele>
        <time>2019-03-26T11:01:28.000Z</time>
      </trkpt>
      <trkpt lat="44.74844" lon="4.51723">
        <ele>705.01</ele>
        <time>2019-03-26T11:01:48.000Z</time>
      </trkpt>
      <trkpt lat="44.74862" lon="4.51748">
        <ele>712.53</ele>
        <time>2019-03-26T11:02:08.000Z</time>
      </trkpt>
      <trkpt lat="44.74868" lon="4.51765">
        <ele>711.68</ele>
        <time>2019-03-26T11:02:31.000Z</time>
      </trkpt>
      <trkpt lat="44.74889" lon="4.51784">
        <ele>705.85</ele>
        <time>2019-03-26T11:02:51.000Z</time>
      </trkpt>
      <trkpt lat="44.74913" lon="4.51807">
        <ele>709.98</ele>
        <time>2019-03-26T11:03:11.000Z</time>
      </trkpt>
      <trkpt lat="44.74929" lon="4.51831">
        <ele>700.6</ele>
        <time>2019-03-26T11:03:31.000Z</time>
      </trkpt>
      <trkpt lat="44.74946" lon="4.51855">
        <ele>697.54</ele>
        <time>2019-03-26T11:03:51.000Z</time>
      </trkpt>
      <trkpt lat="44.74963" lon="4.51875">
        <ele>701.53</ele>
        <time>2019-03-26T11:04:11.000Z</time>
      </trkpt>
      <trkpt lat="44.74986" lon="4.51895">
        <ele>703.35</ele>
        <time>2019-03-26T11:04:31.000Z</time>
      </trkpt>
      <trkpt lat="44.75009" lon="4.51901">
        <ele>697.35</ele>
        <time>2019-03-26T11:04:51.000Z</time>
      </trkpt>
      <trkpt lat="44.75024" lon="4.51903">
        <ele>691.89</ele>
        <time>2019-03-26T11:05:11.000Z</time>
      </trkpt>
      <trkpt lat="44.75036" lon="4.51909">
        <ele>702.49</ele>
        <time>2019-03-26T11:05:33.000Z</time>
      </trkpt>
      <trkpt lat="44.75052" lon="4.51918">
        <ele>707.52</ele>
        <time>2019-03-26T11:05:53.000Z</time>
      </trkpt>
      <trkpt lat="44.75061" lon="4.51933">
        <ele>710.58</ele>
        <time>2019-03-26T11:06:28.000Z</time>
      </trkpt>
      <trkpt lat="44.75069" lon="4.5195">
        <ele>705.73</ele>
        <time>2019-03-26T11:07:14.000Z</time>
      </trkpt>
      <trkpt lat="44.75083" lon="4.51957">
        <ele>701.37</ele>
        <time>2019-03-26T11:07:41.000Z</time>
      </trkpt>
      <trkpt lat="44.75096" lon="4.51963">
        <ele>696.78</ele>
        <time>2019-03-26T11:38:33.000Z</time>
      </trkpt>
      <trkpt lat="44.75109" lon="4.5197">
        <ele>694.32</ele>
        <time>2019-03-26T11:39:01.000Z</time>
      </trkpt>
      <trkpt lat="44.75136" lon="4.51953">
        <ele>689.41</ele>
        <time>2019-03-26T11:39:21.000Z</time>
      </trkpt>
      <trkpt lat="44.75159" lon="4.51941">
        <ele>684.65</ele>
        <time>2019-03-26T11:39:41.000Z</time>
      </trkpt>
      <trkpt lat="44.7518" lon="4.51939">
        <ele>679.51</ele>
        <time>2019-03-26T11:40:01.000Z</time>
      </trkpt>
      <trkpt lat="44.75193" lon="4.51943">
        <ele>681.67</ele>
        <time>2019-03-26T11:40:28.000Z</time>
      </trkpt>
      <trkpt lat="44.75225" lon="4.51942">
        <ele>676.76</ele>
        <time>2019-03-26T11:40:48.000Z</time>
      </trkpt>
      <trkpt lat="44.75245" lon="4.51944">
        <ele>678.81</ele>
        <time>2019-03-26T11:41:08.000Z</time>
      </trkpt>
      <trkpt lat="44.75258" lon="4.51931">
        <ele>672.6</ele>
        <time>2019-03-26T11:41:28.000Z</time>
      </trkpt>
      <trkpt lat="44.75276" lon="4.51925">
        <ele>667.48</ele>
        <time>2019-03-26T11:41:48.000Z</time>
      </trkpt>
      <trkpt lat="44.75298" lon="4.5192">
        <ele>666.73</ele>
        <time>2019-03-26T11:42:08.000Z</time>
      </trkpt>
      <trkpt lat="44.75319" lon="4.51916">
        <ele>654.93</ele>
        <time>2019-03-26T11:42:28.000Z</time>
      </trkpt>
      <trkpt lat="44.75338" lon="4.51923">
        <ele>647.61</ele>
        <time>2019-03-26T11:42:48.000Z</time>
      </trkpt>
      <trkpt lat="44.75356" lon="4.51928">
        <ele>656.5</ele>
        <time>2019-03-26T11:43:08.000Z</time>
      </trkpt>
      <trkpt lat="44.75369" lon="4.5194">
        <ele>670.57</ele>
        <time>2019-03-26T11:43:28.000Z</time>
      </trkpt>
      <trkpt lat="44.75375" lon="4.5197">
        <ele>668.85</ele>
        <time>2019-03-26T11:43:48.000Z</time>
      </trkpt>
      <trkpt lat="44.75372" lon="4.51996">
        <ele>668.32</ele>
        <time>2019-03-26T11:44:08.000Z</time>
      </trkpt>
      <trkpt lat="44.75364" lon="4.52023">
        <ele>664.4</ele>
        <time>2019-03-26T11:44:28.000Z</time>
      </trkpt>
      <trkpt lat="44.75358" lon="4.52056">
        <ele>668.03</ele>
        <time>2019-03-26T11:44:48.000Z</time>
      </trkpt>
      <trkpt lat="44.75358" lon="4.52076">
        <ele>668.04</ele>
        <time>2019-03-26T11:45:08.000Z</time>
      </trkpt>
      <trkpt lat="44.75356" lon="4.52102">
        <ele>660.62</ele>
        <time>2019-03-26T11:45:28.000Z</time>
      </trkpt>
      <trkpt lat="44.75348" lon="4.52133">
        <ele>656.73</ele>
        <time>2019-03-26T11:45:48.000Z</time>
      </trkpt>
      <trkpt lat="44.75342" lon="4.52169">
        <ele>664.65</ele>
        <time>2019-03-26T11:46:08.000Z</time>
      </trkpt>
      <trkpt lat="44.75335" lon="4.52199">
        <ele>669.95</ele>
        <time>2019-03-26T11:46:28.000Z</time>
      </trkpt>
      <trkpt lat="44.75332" lon="4.52218">
        <ele>668.54</ele>
        <time>2019-03-26T11:46:55.000Z</time>
      </trkpt>
      <trkpt lat="44.75333" lon="4.5224">
        <ele>672.36</ele>
        <time>2019-03-26T11:47:15.000Z</time>
      </trkpt>
      <trkpt lat="44.75332" lon="4.52278">
        <ele>679.34</ele>
        <time>2019-03-26T11:47:35.000Z</time>
      </trkpt>
      <trkpt lat="44.75344" lon="4.52311">
        <ele>673.61</ele>
        <time>2019-03-26T11:47:55.000Z</time>
      </trkpt>
      <trkpt lat="44.75358" lon="4.5234">
        <ele>670.86</ele>
        <time>2019-03-26T11:48:15.000Z</time>
      </trkpt>
      <trkpt lat="44.75379" lon="4.52373">
        <ele>673.71</ele>
        <time>2019-03-26T11:48:35.000Z</time>
      </trkpt>
      <trkpt lat="44.7539" lon="4.52398">
        <ele>668.74</ele>
        <time>2019-03-26T11:48:55.000Z</time>
      </trkpt>
      <trkpt lat="44.7541" lon="4.52413">
        <ele>659.44</ele>
        <time>2019-03-26T11:49:15.000Z</time>
      </trkpt>
      <trkpt lat="44.75422" lon="4.52438">
        <ele>655.66</ele>
        <time>2019-03-26T11:49:35.000Z</time>
      </trkpt>
      <trkpt lat="44.75437" lon="4.52468">
        <ele>655.55</ele>
        <time>2019-03-26T11:49:55.000Z</time>
      </trkpt>
      <trkpt lat="44.75448" lon="4.52492">
        <ele>649.11</ele>
        <time>2019-03-26T11:50:15.000Z</time>
      </trkpt>
      <trkpt lat="44.75464" lon="4.52519">
        <ele>643.33</ele>
        <time>2019-03-26T11:50:35.000Z</time>
      </trkpt>
      <trkpt lat="44.75466" lon="4.52546">
        <ele>646.91</ele>
        <time>2019-03-26T11:50:55.000Z</time>
      </trkpt>
      <trkpt lat="44.75483" lon="4.52562">
        <ele>648.78</ele>
        <time>2019-03-26T11:51:15.000Z</time>
      </trkpt>
      <trkpt lat="44.75495" lon="4.52569">
        <ele>651.59</ele>
        <time>2019-03-26T11:51:59.000Z</time>
      </trkpt>
      <trkpt lat="44.75493" lon="4.52593">
        <ele>649.42</ele>
        <time>2019-03-26T11:52:27.000Z</time>
      </trkpt>
      <trkpt lat="44.75498" lon="4.52626">
        <ele>647.74</ele>
        <time>2019-03-26T11:52:47.000Z</time>
      </trkpt>
      <trkpt lat="44.75511" lon="4.52644">
        <ele>645.12</ele>
        <time>2019-03-26T11:53:07.000Z</time>
      </trkpt>
      <trkpt lat="44.75528" lon="4.52676">
        <ele>638.88</ele>
        <time>2019-03-26T11:53:27.000Z</time>
      </trkpt>
      <trkpt lat="44.75557" lon="4.52695">
        <ele>639.66</ele>
        <time>2019-03-26T11:53:47.000Z</time>
      </trkpt>
      <trkpt lat="44.75569" lon="4.52684">
        <ele>637.61</ele>
        <time>2019-03-26T11:54:07.000Z</time>
      </trkpt>
      <trkpt lat="44.75589" lon="4.52689">
        <ele>634.67</ele>
        <time>2019-03-26T11:54:27.000Z</time>
      </trkpt>
      <trkpt lat="44.75605" lon="4.52709">
        <ele>634.68</ele>
        <time>2019-03-26T11:54:47.000Z</time>
      </trkpt>
      <trkpt lat="44.75624" lon="4.52733">
        <ele>642.3</ele>
        <time>2019-03-26T11:55:07.000Z</time>
      </trkpt>
      <trkpt lat="44.75641" lon="4.5276">
        <ele>646.6</ele>
        <time>2019-03-26T11:55:27.000Z</time>
      </trkpt>
      <trkpt lat="44.75655" lon="4.52786">
        <ele>650.36</ele>
        <time>2019-03-26T11:55:47.000Z</time>
      </trkpt>
      <trkpt lat="44.75676" lon="4.52796">
        <ele>653.53</ele>
        <time>2019-03-26T11:56:07.000Z</time>
      </trkpt>
      <trkpt lat="44.75691" lon="4.52794">
        <ele>646.43</ele>
        <time>2019-03-26T11:56:27.000Z</time>
      </trkpt>
      <trkpt lat="44.75704" lon="4.52799">
        <ele>645.42</ele>
        <time>2019-03-26T11:56:47.000Z</time>
      </trkpt>
      <trkpt lat="44.75718" lon="4.52813">
        <ele>645.79</ele>
        <time>2019-03-26T11:57:07.000Z</time>
      </trkpt>
      <trkpt lat="44.75703" lon="4.52819">
        <ele>642.88</ele>
        <time>2019-03-26T11:57:27.000Z</time>
      </trkpt>
      <trkpt lat="44.75711" lon="4.52835">
        <ele>633.83</ele>
        <time>2019-03-26T11:57:59.000Z</time>
      </trkpt>
      <trkpt lat="44.75711" lon="4.52855">
        <ele>631.36</ele>
        <time>2019-03-26T11:58:20.000Z</time>
      </trkpt>
      <trkpt lat="44.75698" lon="4.52864">
        <ele>625.37</ele>
        <time>2019-03-26T11:58:43.000Z</time>
      </trkpt>
      <trkpt lat="44.75681" lon="4.52849">
        <ele>616.55</ele>
        <time>2019-03-26T11:59:03.000Z</time>
      </trkpt>
      <trkpt lat="44.75662" lon="4.52843">
        <ele>614.99</ele>
        <time>2019-03-26T11:59:23.000Z</time>
      </trkpt>
      <trkpt lat="44.75642" lon="4.5284">
        <ele>612.88</ele>
        <time>2019-03-26T11:59:43.000Z</time>
      </trkpt>
      <trkpt lat="44.75622" lon="4.52839">
        <ele>611.37</ele>
        <time>2019-03-26T12:00:03.000Z</time>
      </trkpt>
      <trkpt lat="44.75627" lon="4.52857">
        <ele>608.47</ele>
        <time>2019-03-26T12:01:56.000Z</time>
      </trkpt>
      <trkpt lat="44.75645" lon="4.52875">
        <ele>606.07</ele>
        <time>2019-03-26T12:02:16.000Z</time>
      </trkpt>
      <trkpt lat="44.75653" lon="4.52903">
        <ele>595.62</ele>
        <time>2019-03-26T12:02:36.000Z</time>
      </trkpt>
      <trkpt lat="44.75658" lon="4.52923">
        <ele>591.85</ele>
        <time>2019-03-26T12:02:58.000Z</time>
      </trkpt>
      <trkpt lat="44.75649" lon="4.52957">
        <ele>593.6</ele>
        <time>2019-03-26T12:03:18.000Z</time>
      </trkpt>
      <trkpt lat="44.75673" lon="4.52975">
        <ele>592.5</ele>
        <time>2019-03-26T12:03:38.000Z</time>
      </trkpt>
      <trkpt lat="44.75688" lon="4.52988">
        <ele>603.66</ele>
        <time>2019-03-26T12:03:58.000Z</time>
      </trkpt>
      <trkpt lat="44.75707" lon="4.52982">
        <ele>597.99</ele>
        <time>2019-03-26T12:04:18.000Z</time>
      </trkpt>
      <trkpt lat="44.75721" lon="4.52981">
        <ele>595.66</ele>
        <time>2019-03-26T12:05:16.000Z</time>
      </trkpt>
      <trkpt lat="44.75729" lon="4.53001">
        <ele>589.99</ele>
        <time>2019-03-26T12:05:36.000Z</time>
      </trkpt>
      <trkpt lat="44.75727" lon="4.53027">
        <ele>593.35</ele>
        <time>2019-03-26T12:05:56.000Z</time>
      </trkpt>
      <trkpt lat="44.75729" lon="4.53046">
        <ele>600.3</ele>
        <time>2019-03-26T12:06:20.000Z</time>
      </trkpt>
      <trkpt lat="44.75739" lon="4.53058">
        <ele>590.37</ele>
        <time>2019-03-26T12:07:09.000Z</time>
      </trkpt>
      <trkpt lat="44.75744" lon="4.53079">
        <ele>600.55</ele>
        <time>2019-03-26T12:07:29.000Z</time>
      </trkpt>
      <trkpt lat="44.75751" lon="4.53099">
        <ele>604.61</ele>
        <time>2019-03-26T12:07:49.000Z</time>
      </trkpt>
      <trkpt lat="44.7576" lon="4.53117">
        <ele>610.38</ele>
        <time>2019-03-26T12:08:09.000Z</time>
      </trkpt>
      <trkpt lat="44.75763" lon="4.53098">
        <ele>609.82</ele>
        <time>2019-03-26T12:08:40.000Z</time>
      </trkpt>
      <trkpt lat="44.75776" lon="4.53108">
        <ele>620.18</ele>
        <time>2019-03-26T12:09:13.000Z</time>
      </trkpt>
      <trkpt lat="44.75771" lon="4.53089">
        <ele>623.35</ele>
        <time>2019-03-26T12:09:36.000Z</time>
      </trkpt>
      <trkpt lat="44.75783" lon="4.5308">
        <ele>626.61</ele>
        <time>2019-03-26T12:10:18.000Z</time>
      </trkpt>
      <trkpt lat="44.75791" lon="4.53096">
        <ele>631.81</ele>
        <time>2019-03-26T12:10:45.000Z</time>
      </trkpt>
      <trkpt lat="44.75805" lon="4.53099">
        <ele>642.04</ele>
        <time>2019-03-26T12:11:05.000Z</time>
      </trkpt>
      <trkpt lat="44.75818" lon="4.53119">
        <ele>639.68</ele>
        <time>2019-03-26T12:11:25.000Z</time>
      </trkpt>
      <trkpt lat="44.7582" lon="4.53146">
        <ele>642.62</ele>
        <time>2019-03-26T12:11:45.000Z</time>
      </trkpt>
      <trkpt lat="44.75838" lon="4.53162">
        <ele>647.62</ele>
        <time>2019-03-26T12:12:05.000Z</time>
      </trkpt>
      <trkpt lat="44.75856" lon="4.53172">
        <ele>648.67</ele>
        <time>2019-03-26T12:12:25.000Z</time>
      </trkpt>
      <trkpt lat="44.75872" lon="4.53187">
        <ele>655.32</ele>
        <time>2019-03-26T12:12:45.000Z</time>
      </trkpt>
      <trkpt lat="44.75884" lon="4.53203">
        <ele>658.62</ele>
        <time>2019-03-26T12:13:05.000Z</time>
      </trkpt>
      <trkpt lat="44.75893" lon="4.53218">
        <ele>664.87</ele>
        <time>2019-03-26T12:13:40.000Z</time>
      </trkpt>
      <trkpt lat="44.75882" lon="4.53255">
        <ele>656.33</ele>
        <time>2019-03-26T12:14:00.000Z</time>
      </trkpt>
      <trkpt lat="44.75893" lon="4.53273">
        <ele>652.68</ele>
        <time>2019-03-26T12:14:20.000Z</time>
      </trkpt>
      <trkpt lat="44.75901" lon="4.53299">
        <ele>649.62</ele>
        <time>2019-03-26T12:14:40.000Z</time>
      </trkpt>
      <trkpt lat="44.75909" lon="4.53329">
        <ele>646.87</ele>
        <time>2019-03-26T12:15:00.000Z</time>
      </trkpt>
      <trkpt lat="44.7591" lon="4.53352">
        <ele>644.84</ele>
        <time>2019-03-26T12:15:20.000Z</time>
      </trkpt>
      <trkpt lat="44.75916" lon="4.53391">
        <ele>647.62</ele>
        <time>2019-03-26T12:15:40.000Z</time>
      </trkpt>
      <trkpt lat="44.75925" lon="4.53415">
        <ele>642.87</ele>
        <time>2019-03-26T12:16:00.000Z</time>
      </trkpt>
      <trkpt lat="44.75927" lon="4.53446">
        <ele>648.05</ele>
        <time>2019-03-26T12:16:20.000Z</time>
      </trkpt>
      <trkpt lat="44.75911" lon="4.5346">
        <ele>647.64</ele>
        <time>2019-03-26T12:16:40.000Z</time>
      </trkpt>
      <trkpt lat="44.75895" lon="4.53476">
        <ele>636.63</ele>
        <time>2019-03-26T12:17:00.000Z</time>
      </trkpt>
      <trkpt lat="44.75878" lon="4.53486">
        <ele>630.03</ele>
        <time>2019-03-26T12:17:20.000Z</time>
      </trkpt>
      <trkpt lat="44.75857" lon="4.53495">
        <ele>631.19</ele>
        <time>2019-03-26T12:17:40.000Z</time>
      </trkpt>
      <trkpt lat="44.75839" lon="4.53509">
        <ele>626.47</ele>
        <time>2019-03-26T12:18:00.000Z</time>
      </trkpt>
      <trkpt lat="44.75817" lon="4.53529">
        <ele>626.64</ele>
        <time>2019-03-26T12:18:20.000Z</time>
      </trkpt>
      <trkpt lat="44.75794" lon="4.5354">
        <ele>631.64</ele>
        <time>2019-03-26T12:18:40.000Z</time>
      </trkpt>
      <trkpt lat="44.75769" lon="4.53547">
        <ele>639.64</ele>
        <time>2019-03-26T12:19:00.000Z</time>
      </trkpt>
      <trkpt lat="44.75744" lon="4.53551">
        <ele>640.62</ele>
        <time>2019-03-26T12:19:20.000Z</time>
      </trkpt>
      <trkpt lat="44.75724" lon="4.5356">
        <ele>634.88</ele>
        <time>2019-03-26T12:19:40.000Z</time>
      </trkpt>
      <trkpt lat="44.75701" lon="4.53569">
        <ele>633.63</ele>
        <time>2019-03-26T12:20:00.000Z</time>
      </trkpt>
      <trkpt lat="44.75681" lon="4.53581">
        <ele>627.65</ele>
        <time>2019-03-26T12:20:20.000Z</time>
      </trkpt>
      <trkpt lat="44.75665" lon="4.53599">
        <ele>617.1</ele>
        <time>2019-03-26T12:20:40.000Z</time>
      </trkpt>
      <trkpt lat="44.75649" lon="4.53626">
        <ele>613.69</ele>
        <time>2019-03-26T12:21:00.000Z</time>
      </trkpt>
      <trkpt lat="44.75629" lon="4.53647">
        <ele>612.37</ele>
        <time>2019-03-26T12:21:20.000Z</time>
      </trkpt>
      <trkpt lat="44.75616" lon="4.53669">
        <ele>607.62</ele>
        <time>2019-03-26T12:21:40.000Z</time>
      </trkpt>
      <trkpt lat="44.756" lon="4.53684">
        <ele>607.02</ele>
        <time>2019-03-26T12:22:00.000Z</time>
      </trkpt>
      <trkpt lat="44.7559" lon="4.53697">
        <ele>611.53</ele>
        <time>2019-03-26T12:22:24.000Z</time>
      </trkpt>
      <trkpt lat="44.75581" lon="4.53731">
        <ele>613.69</ele>
        <time>2019-03-26T12:22:44.000Z</time>
      </trkpt>
      <trkpt lat="44.75575" lon="4.53767">
        <ele>610.88</ele>
        <time>2019-03-26T12:23:04.000Z</time>
      </trkpt>
      <trkpt lat="44.75572" lon="4.53785">
        <ele>609.63</ele>
        <time>2019-03-26T12:23:43.000Z</time>
      </trkpt>
      <trkpt lat="44.75563" lon="4.53765">
        <ele>604.38</ele>
        <time>2019-03-26T12:24:03.000Z</time>
      </trkpt>
      <trkpt lat="44.75564" lon="4.53788">
        <ele>599.88</ele>
        <time>2019-03-26T12:24:25.000Z</time>
      </trkpt>
      <trkpt lat="44.75569" lon="4.53819">
        <ele>600.69</ele>
        <time>2019-03-26T12:24:45.000Z</time>
      </trkpt>
      <trkpt lat="44.75581" lon="4.53852">
        <ele>602.57</ele>
        <time>2019-03-26T12:25:05.000Z</time>
      </trkpt>
      <trkpt lat="44.75588" lon="4.5387">
        <ele>598.62</ele>
        <time>2019-03-26T12:25:25.000Z</time>
      </trkpt>
      <trkpt lat="44.756" lon="4.53888">
        <ele>597.4</ele>
        <time>2019-03-26T12:25:45.000Z</time>
      </trkpt>
      <trkpt lat="44.75617" lon="4.53907">
        <ele>590.4</ele>
        <time>2019-03-26T12:26:05.000Z</time>
      </trkpt>
      <trkpt lat="44.75637" lon="4.53932">
        <ele>595.55</ele>
        <time>2019-03-26T12:26:25.000Z</time>
      </trkpt>
      <trkpt lat="44.75666" lon="4.53953">
        <ele>591.71</ele>
        <time>2019-03-26T12:26:45.000Z</time>
      </trkpt>
      <trkpt lat="44.75682" lon="4.53967">
        <ele>595.64</ele>
        <time>2019-03-26T12:27:05.000Z</time>
      </trkpt>
      <trkpt lat="44.75705" lon="4.53978">
        <ele>590.63</ele>
        <time>2019-03-26T12:27:25.000Z</time>
      </trkpt>
      <trkpt lat="44.75727" lon="4.54003">
        <ele>594.31</ele>
        <time>2019-03-26T12:27:45.000Z</time>
      </trkpt>
      <trkpt lat="44.75708" lon="4.54014">
        <ele>585.9</ele>
        <time>2019-03-26T12:28:05.000Z</time>
      </trkpt>
      <trkpt lat="44.75693" lon="4.54036">
        <ele>580.64</ele>
        <time>2019-03-26T12:28:25.000Z</time>
      </trkpt>
      <trkpt lat="44.75677" lon="4.54056">
        <ele>582.31</ele>
        <time>2019-03-26T12:28:45.000Z</time>
      </trkpt>
      <trkpt lat="44.75655" lon="4.5409">
        <ele>582.63</ele>
        <time>2019-03-26T12:29:05.000Z</time>
      </trkpt>
      <trkpt lat="44.75636" lon="4.54087">
        <ele>575.7</ele>
        <time>2019-03-26T12:29:25.000Z</time>
      </trkpt>
      <trkpt lat="44.75617" lon="4.54086">
        <ele>564.43</ele>
        <time>2019-03-26T12:29:45.000Z</time>
      </trkpt>
      <trkpt lat="44.75596" lon="4.54092">
        <ele>558.78</ele>
        <time>2019-03-26T12:30:05.000Z</time>
      </trkpt>
      <trkpt lat="44.75572" lon="4.54113">
        <ele>563.65</ele>
        <time>2019-03-26T12:30:25.000Z</time>
      </trkpt>
      <trkpt lat="44.75552" lon="4.5414">
        <ele>570.56</ele>
        <time>2019-03-26T12:30:45.000Z</time>
      </trkpt>
      <trkpt lat="44.75546" lon="4.54163">
        <ele>564.78</ele>
        <time>2019-03-26T12:31:05.000Z</time>
      </trkpt>
      <trkpt lat="44.7556" lon="4.54157">
        <ele>575.95</ele>
        <time>2019-03-26T12:31:45.000Z</time>
      </trkpt>
      <trkpt lat="44.75572" lon="4.54147">
        <ele>575.77</ele>
        <time>2019-03-26T12:33:07.000Z</time>
      </trkpt>
      <trkpt lat="44.75558" lon="4.54153">
        <ele>567.72</ele>
        <time>2019-03-26T12:33:50.000Z</time>
      </trkpt>
      <trkpt lat="44.75546" lon="4.54171">
        <ele>563.7</ele>
        <time>2019-03-26T12:34:10.000Z</time>
      </trkpt>
      <trkpt lat="44.75546" lon="4.54202">
        <ele>566.71</ele>
        <time>2019-03-26T12:34:30.000Z</time>
      </trkpt>
      <trkpt lat="44.75551" lon="4.54232">
        <ele>561.36</ele>
        <time>2019-03-26T12:34:50.000Z</time>
      </trkpt>
      <trkpt lat="44.75554" lon="4.54252">
        <ele>559.39</ele>
        <time>2019-03-26T12:35:10.000Z</time>
      </trkpt>
      <trkpt lat="44.75557" lon="4.54272">
        <ele>556.28</ele>
        <time>2019-03-26T12:36:12.000Z</time>
      </trkpt>
      <trkpt lat="44.75556" lon="4.54299">
        <ele>553.59</ele>
        <time>2019-03-26T12:36:32.000Z</time>
      </trkpt>
      <trkpt lat="44.75551" lon="4.54331">
        <ele>556.39</ele>
        <time>2019-03-26T12:36:52.000Z</time>
      </trkpt>
      <trkpt lat="44.75556" lon="4.54349">
        <ele>562.75</ele>
        <time>2019-03-26T12:37:29.000Z</time>
      </trkpt>
      <trkpt lat="44.75558" lon="4.54376">
        <ele>561.9</ele>
        <time>2019-03-26T12:37:49.000Z</time>
      </trkpt>
      <trkpt lat="44.75566" lon="4.54408">
        <ele>565.72</ele>
        <time>2019-03-26T12:38:09.000Z</time>
      </trkpt>
      <trkpt lat="44.75549" lon="4.54412">
        <ele>558.66</ele>
        <time>2019-03-26T12:38:29.000Z</time>
      </trkpt>
      <trkpt lat="44.75533" lon="4.54416">
        <ele>554.95</ele>
        <time>2019-03-26T12:38:49.000Z</time>
      </trkpt>
      <trkpt lat="44.75514" lon="4.544">
        <ele>556.32</ele>
        <time>2019-03-26T12:39:09.000Z</time>
      </trkpt>
      <trkpt lat="44.75494" lon="4.544">
        <ele>546.58</ele>
        <time>2019-03-26T12:39:29.000Z</time>
      </trkpt>
      <trkpt lat="44.75483" lon="4.54412">
        <ele>544.39</ele>
        <time>2019-03-26T12:39:50.000Z</time>
      </trkpt>
      <trkpt lat="44.75477" lon="4.5445">
        <ele>546.67</ele>
        <time>2019-03-26T12:40:10.000Z</time>
      </trkpt>
      <trkpt lat="44.75477" lon="4.54474">
        <ele>541.48</ele>
        <time>2019-03-26T12:40:30.000Z</time>
      </trkpt>
      <trkpt lat="44.75471" lon="4.54511">
        <ele>544.71</ele>
        <time>2019-03-26T12:40:50.000Z</time>
      </trkpt>
      <trkpt lat="44.75468" lon="4.5454">
        <ele>543.73</ele>
        <time>2019-03-26T12:41:10.000Z</time>
      </trkpt>
      <trkpt lat="44.75459" lon="4.54576">
        <ele>545.73</ele>
        <time>2019-03-26T12:41:30.000Z</time>
      </trkpt>
      <trkpt lat="44.75459" lon="4.54607">
        <ele>541.66</ele>
        <time>2019-03-26T12:41:50.000Z</time>
      </trkpt>
      <trkpt lat="44.75461" lon="4.54642">
        <ele>543.9</ele>
        <time>2019-03-26T12:42:10.000Z</time>
      </trkpt>
      <trkpt lat="44.75459" lon="4.54675">
        <ele>537.71</ele>
        <time>2019-03-26T12:42:30.000Z</time>
      </trkpt>
      <trkpt lat="44.75462" lon="4.547">
        <ele>536.83</ele>
        <time>2019-03-26T12:42:50.000Z</time>
      </trkpt>
      <trkpt lat="44.75478" lon="4.54712">
        <ele>539.58</ele>
        <time>2019-03-26T12:43:10.000Z</time>
      </trkpt>
      <trkpt lat="44.75491" lon="4.54709">
        <ele>538.4</ele>
        <time>2019-03-26T12:43:30.000Z</time>
      </trkpt>
      <trkpt lat="44.7551" lon="4.54704">
        <ele>537.59</ele>
        <time>2019-03-26T12:43:50.000Z</time>
      </trkpt>
      <trkpt lat="44.75526" lon="4.5471">
        <ele>531.65</ele>
        <time>2019-03-26T12:44:10.000Z</time>
      </trkpt>
      <trkpt lat="44.75555" lon="4.54703">
        <ele>531.67</ele>
        <time>2019-03-26T12:44:30.000Z</time>
      </trkpt>
      <trkpt lat="44.75562" lon="4.54732">
        <ele>529.65</ele>
        <time>2019-03-26T12:44:50.000Z</time>
      </trkpt>
      <trkpt lat="44.75578" lon="4.54755">
        <ele>523.91</ele>
        <time>2019-03-26T12:45:10.000Z</time>
      </trkpt>
      <trkpt lat="44.75598" lon="4.54775">
        <ele>522.59</ele>
        <time>2019-03-26T12:45:30.000Z</time>
      </trkpt>
      <trkpt lat="44.75616" lon="4.54802">
        <ele>523.45</ele>
        <time>2019-03-26T12:45:50.000Z</time>
      </trkpt>
      <trkpt lat="44.75631" lon="4.54831">
        <ele>516.96</ele>
        <time>2019-03-26T12:46:10.000Z</time>
      </trkpt>
      <trkpt lat="44.75643" lon="4.54858">
        <ele>508.65</ele>
        <time>2019-03-26T12:46:30.000Z</time>
      </trkpt>
      <trkpt lat="44.75662" lon="4.54876">
        <ele>513.16</ele>
        <time>2019-03-26T12:46:50.000Z</time>
      </trkpt>
      <trkpt lat="44.75683" lon="4.54884">
        <ele>507.4</ele>
        <time>2019-03-26T12:47:10.000Z</time>
      </trkpt>
      <trkpt lat="44.757" lon="4.54885">
        <ele>504.65</ele>
        <time>2019-03-26T12:47:30.000Z</time>
      </trkpt>
      <trkpt lat="44.75706" lon="4.54859">
        <ele>501.63</ele>
        <time>2019-03-26T12:47:50.000Z</time>
      </trkpt>
      <trkpt lat="44.75725" lon="4.54859">
        <ele>504.45</ele>
        <time>2019-03-26T12:48:10.000Z</time>
      </trkpt>
      <trkpt lat="44.75713" lon="4.54869">
        <ele>505.64</ele>
        <time>2019-03-26T12:49:01.000Z</time>
      </trkpt>
      <trkpt lat="44.75711" lon="4.54894">
        <ele>501.64</ele>
        <time>2019-03-26T12:49:21.000Z</time>
      </trkpt>
      <trkpt lat="44.75712" lon="4.54914">
        <ele>498.59</ele>
        <time>2019-03-26T12:49:48.000Z</time>
      </trkpt>
      <trkpt lat="44.75698" lon="4.54927">
        <ele>490.64</ele>
        <time>2019-03-26T12:50:08.000Z</time>
      </trkpt>
      <trkpt lat="44.75674" lon="4.54934">
        <ele>483.44</ele>
        <time>2019-03-26T12:50:28.000Z</time>
      </trkpt>
      <trkpt lat="44.75653" lon="4.5493">
        <ele>481.7</ele>
        <time>2019-03-26T12:50:48.000Z</time>
      </trkpt>
      <trkpt lat="44.75625" lon="4.54933">
        <ele>476.89</ele>
        <time>2019-03-26T12:51:08.000Z</time>
      </trkpt>
      <trkpt lat="44.75605" lon="4.54934">
        <ele>477.73</ele>
        <time>2019-03-26T12:51:28.000Z</time>
      </trkpt>
      <trkpt lat="44.75621" lon="4.54943">
        <ele>480.17</ele>
        <time>2019-03-26T12:51:48.000Z</time>
      </trkpt>
      <trkpt lat="44.75646" lon="4.54958">
        <ele>479.47</ele>
        <time>2019-03-26T12:52:08.000Z</time>
      </trkpt>
      <trkpt lat="44.75663" lon="4.5498">
        <ele>480.2</ele>
        <time>2019-03-26T12:52:28.000Z</time>
      </trkpt>
      <trkpt lat="44.75684" lon="4.54996">
        <ele>478.71</ele>
        <time>2019-03-26T12:52:48.000Z</time>
      </trkpt>
      <trkpt lat="44.75706" lon="4.54998">
        <ele>469.72</ele>
        <time>2019-03-26T12:53:08.000Z</time>
      </trkpt>
      <trkpt lat="44.75728" lon="4.55001">
        <ele>463.36</ele>
        <time>2019-03-26T12:53:28.000Z</time>
      </trkpt>
      <trkpt lat="44.7575" lon="4.54996">
        <ele>456.67</ele>
        <time>2019-03-26T12:53:48.000Z</time>
      </trkpt>
      <trkpt lat="44.75782" lon="4.55003">
        <ele>464.35</ele>
        <time>2019-03-26T12:54:08.000Z</time>
      </trkpt>
      <trkpt lat="44.75777" lon="4.55024">
        <ele>464.83</ele>
        <time>2019-03-26T12:54:28.000Z</time>
      </trkpt>
      <trkpt lat="44.75753" lon="4.55039">
        <ele>462.09</ele>
        <time>2019-03-26T12:54:48.000Z</time>
      </trkpt>
      <trkpt lat="44.75733" lon="4.55051">
        <ele>464.15</ele>
        <time>2019-03-26T12:55:08.000Z</time>
      </trkpt>
      <trkpt lat="44.7571" lon="4.55062">
        <ele>467.9</ele>
        <time>2019-03-26T12:55:28.000Z</time>
      </trkpt>
      <trkpt lat="44.75685" lon="4.55079">
        <ele>471.1</ele>
        <time>2019-03-26T12:55:48.000Z</time>
      </trkpt>
      <trkpt lat="44.7566" lon="4.55092">
        <ele>477.41</ele>
        <time>2019-03-26T12:56:08.000Z</time>
      </trkpt>
      <trkpt lat="44.75637" lon="4.5511">
        <ele>479.41</ele>
        <time>2019-03-26T12:56:28.000Z</time>
      </trkpt>
      <trkpt lat="44.75617" lon="4.55127">
        <ele>477.84</ele>
        <time>2019-03-26T12:56:48.000Z</time>
      </trkpt>
      <trkpt lat="44.7559" lon="4.55141">
        <ele>486.26</ele>
        <time>2019-03-26T12:57:08.000Z</time>
      </trkpt>
      <trkpt lat="44.75569" lon="4.55156">
        <ele>492.76</ele>
        <time>2019-03-26T12:57:28.000Z</time>
      </trkpt>
      <trkpt lat="44.75579" lon="4.55171">
        <ele>484.34</ele>
        <time>2019-03-26T12:58:06.000Z</time>
      </trkpt>
      <trkpt lat="44.75567" lon="4.55181">
        <ele>487.88</ele>
        <time>2019-03-26T12:59:09.000Z</time>
      </trkpt>
      <trkpt lat="44.75548" lon="4.55194">
        <ele>491.53</ele>
        <time>2019-03-26T12:59:29.000Z</time>
      </trkpt>
      <trkpt lat="44.75532" lon="4.55211">
        <ele>496.65</ele>
        <time>2019-03-26T12:59:49.000Z</time>
      </trkpt>
      <trkpt lat="44.75512" lon="4.55238">
        <ele>493.66</ele>
        <time>2019-03-26T13:00:09.000Z</time>
      </trkpt>
      <trkpt lat="44.75507" lon="4.55256">
        <ele>481.47</ele>
        <time>2019-03-26T13:00:29.000Z</time>
      </trkpt>
      <trkpt lat="44.75495" lon="4.55292">
        <ele>488.89</ele>
        <time>2019-03-26T13:00:49.000Z</time>
      </trkpt>
      <trkpt lat="44.75503" lon="4.55314">
        <ele>489.06</ele>
        <time>2019-03-26T13:01:09.000Z</time>
      </trkpt>
      <trkpt lat="44.75521" lon="4.55334">
        <ele>488.63</ele>
        <time>2019-03-26T13:01:29.000Z</time>
      </trkpt>
      <trkpt lat="44.75541" lon="4.55351">
        <ele>488.72</ele>
        <time>2019-03-26T13:01:49.000Z</time>
      </trkpt>
      <trkpt lat="44.75564" lon="4.55361">
        <ele>489.91</ele>
        <time>2019-03-26T13:02:09.000Z</time>
      </trkpt>
      <trkpt lat="44.75579" lon="4.55363">
        <ele>493.4</ele>
        <time>2019-03-26T13:03:16.000Z</time>
      </trkpt>
      <trkpt lat="44.75602" lon="4.55364">
        <ele>486.99</ele>
        <time>2019-03-26T13:03:36.000Z</time>
      </trkpt>
      <trkpt lat="44.75628" lon="4.55366">
        <ele>491.47</ele>
        <time>2019-03-26T13:03:56.000Z</time>
      </trkpt>
      <trkpt lat="44.75654" lon="4.55379">
        <ele>494.51</ele>
        <time>2019-03-26T13:04:16.000Z</time>
      </trkpt>
      <trkpt lat="44.75682" lon="4.55392">
        <ele>494.74</ele>
        <time>2019-03-26T13:04:36.000Z</time>
      </trkpt>
      <trkpt lat="44.75711" lon="4.55404">
        <ele>492.93</ele>
        <time>2019-03-26T13:04:56.000Z</time>
      </trkpt>
      <trkpt lat="44.75729" lon="4.55424">
        <ele>493.87</ele>
        <time>2019-03-26T13:05:16.000Z</time>
      </trkpt>
      <trkpt lat="44.75746" lon="4.55448">
        <ele>490.32</ele>
        <time>2019-03-26T13:05:36.000Z</time>
      </trkpt>
      <trkpt lat="44.75768" lon="4.55465">
        <ele>490.61</ele>
        <time>2019-03-26T13:05:56.000Z</time>
      </trkpt>
      <trkpt lat="44.75805" lon="4.55465">
        <ele>490.9</ele>
        <time>2019-03-26T13:06:16.000Z</time>
      </trkpt>
      <trkpt lat="44.75824" lon="4.55457">
        <ele>490.02</ele>
        <time>2019-03-26T13:06:36.000Z</time>
      </trkpt>
      <trkpt lat="44.7585" lon="4.55466">
        <ele>484.68</ele>
        <time>2019-03-26T13:06:56.000Z</time>
      </trkpt>
      <trkpt lat="44.75879" lon="4.55467">
        <ele>486.08</ele>
        <time>2019-03-26T13:07:16.000Z</time>
      </trkpt>
      <trkpt lat="44.75898" lon="4.55451">
        <ele>489.89</ele>
        <time>2019-03-26T13:07:36.000Z</time>
      </trkpt>
      <trkpt lat="44.75916" lon="4.55444">
        <ele>490.14</ele>
        <time>2019-03-26T13:07:56.000Z</time>
      </trkpt>
      <trkpt lat="44.75933" lon="4.55424">
        <ele>491.5</ele>
        <time>2019-03-26T13:08:16.000Z</time>
      </trkpt>
      <trkpt lat="44.7595" lon="4.55389">
        <ele>496.26</ele>
        <time>2019-03-26T13:08:36.000Z</time>
      </trkpt>
      <trkpt lat="44.7596" lon="4.55362">
        <ele>492.35</ele>
        <time>2019-03-26T13:08:56.000Z</time>
      </trkpt>
      <trkpt lat="44.75972" lon="4.55351">
        <ele>496.67</ele>
        <time>2019-03-26T13:09:18.000Z</time>
      </trkpt>
      <trkpt lat="44.75996" lon="4.55347">
        <ele>492.86</ele>
        <time>2019-03-26T13:09:38.000Z</time>
      </trkpt>
      <trkpt lat="44.76018" lon="4.55353">
        <ele>492.92</ele>
        <time>2019-03-26T13:09:58.000Z</time>
      </trkpt>
      <trkpt lat="44.76031" lon="4.55368">
        <ele>485.62</ele>
        <time>2019-03-26T13:10:18.000Z</time>
      </trkpt>
      <trkpt lat="44.76018" lon="4.55384">
        <ele>478.34</ele>
        <time>2019-03-26T13:10:38.000Z</time>
      </trkpt>
      <trkpt lat="44.76018" lon="4.55408">
        <ele>478.61</ele>
        <time>2019-03-26T13:10:58.000Z</time>
      </trkpt>
      <trkpt lat="44.76033" lon="4.55409">
        <ele>475.8</ele>
        <time>2019-03-26T13:11:19.000Z</time>
      </trkpt>
      <trkpt lat="44.7605" lon="4.55423">
        <ele>487.59</ele>
        <time>2019-03-26T13:11:39.000Z</time>
      </trkpt>
      <trkpt lat="44.76057" lon="4.55454">
        <ele>494.33</ele>
        <time>2019-03-26T13:11:59.000Z</time>
      </trkpt>
      <trkpt lat="44.7605" lon="4.55476">
        <ele>496.74</ele>
        <time>2019-03-26T13:12:19.000Z</time>
      </trkpt>
      <trkpt lat="44.76046" lon="4.55504">
        <ele>497.66</ele>
        <time>2019-03-26T13:12:39.000Z</time>
      </trkpt>
      <trkpt lat="44.76065" lon="4.55521">
        <ele>502.73</ele>
        <time>2019-03-26T13:12:59.000Z</time>
      </trkpt>
      <trkpt lat="44.76082" lon="4.55527">
        <ele>507.64</ele>
        <time>2019-03-26T13:13:19.000Z</time>
      </trkpt>
      <trkpt lat="44.76107" lon="4.55536">
        <ele>506.84</ele>
        <time>2019-03-26T13:13:39.000Z</time>
      </trkpt>
      <trkpt lat="44.76125" lon="4.55544">
        <ele>504.41</ele>
        <time>2019-03-26T13:13:59.000Z</time>
      </trkpt>
      <trkpt lat="44.76138" lon="4.55565">
        <ele>506.85</ele>
        <time>2019-03-26T13:14:19.000Z</time>
      </trkpt>
      <trkpt lat="44.7613" lon="4.55592">
        <ele>512.89</ele>
        <time>2019-03-26T13:14:39.000Z</time>
      </trkpt>
      <trkpt lat="44.76131" lon="4.5562">
        <ele>505.68</ele>
        <time>2019-03-26T13:14:59.000Z</time>
      </trkpt>
      <trkpt lat="44.76133" lon="4.55647">
        <ele>511.65</ele>
        <time>2019-03-26T13:15:19.000Z</time>
      </trkpt>
      <trkpt lat="44.76141" lon="4.55677">
        <ele>511.11</ele>
        <time>2019-03-26T13:15:39.000Z</time>
      </trkpt>
      <trkpt lat="44.76156" lon="4.55711">
        <ele>511.9</ele>
        <time>2019-03-26T13:15:59.000Z</time>
      </trkpt>
      <trkpt lat="44.76161" lon="4.55748">
        <ele>518.6</ele>
        <time>2019-03-26T13:16:19.000Z</time>
      </trkpt>
      <trkpt lat="44.7617" lon="4.55773">
        <ele>509.81</ele>
        <time>2019-03-26T13:16:39.000Z</time>
      </trkpt>
      <trkpt lat="44.76179" lon="4.55802">
        <ele>501.35</ele>
        <time>2019-03-26T13:16:59.000Z</time>
      </trkpt>
      <trkpt lat="44.76157" lon="4.55804">
        <ele>500.96</ele>
        <time>2019-03-26T13:17:19.000Z</time>
      </trkpt>
      <trkpt lat="44.76131" lon="4.55798">
        <ele>502.91</ele>
        <time>2019-03-26T13:17:39.000Z</time>
      </trkpt>
      <trkpt lat="44.76107" lon="4.55793">
        <ele>508.22</ele>
        <time>2019-03-26T13:17:59.000Z</time>
      </trkpt>
      <trkpt lat="44.76084" lon="4.55793">
        <ele>498</ele>
        <time>2019-03-26T13:18:19.000Z</time>
      </trkpt>
      <trkpt lat="44.76063" lon="4.55801">
        <ele>493.63</ele>
        <time>2019-03-26T13:18:39.000Z</time>
      </trkpt>
      <trkpt lat="44.76039" lon="4.55799">
        <ele>494.75</ele>
        <time>2019-03-26T13:18:59.000Z</time>
      </trkpt>
      <trkpt lat="44.76018" lon="4.55797">
        <ele>491.92</ele>
        <time>2019-03-26T13:19:19.000Z</time>
      </trkpt>
      <trkpt lat="44.76012" lon="4.55815">
        <ele>500.39</ele>
        <time>2019-03-26T13:19:47.000Z</time>
      </trkpt>
      <trkpt lat="44.76023" lon="4.5583">
        <ele>508.65</ele>
        <time>2019-03-26T13:20:07.000Z</time>
      </trkpt>
      <trkpt lat="44.76038" lon="4.55844">
        <ele>524.35</ele>
        <time>2019-03-26T13:20:27.000Z</time>
      </trkpt>
      <trkpt lat="44.76054" lon="4.55858">
        <ele>520.42</ele>
        <time>2019-03-26T13:20:47.000Z</time>
      </trkpt>
      <trkpt lat="44.76077" lon="4.55866">
        <ele>527.02</ele>
        <time>2019-03-26T13:21:07.000Z</time>
      </trkpt>
      <trkpt lat="44.76091" lon="4.55869">
        <ele>526.1</ele>
        <time>2019-03-26T13:21:27.000Z</time>
      </trkpt>
      <trkpt lat="44.76113" lon="4.55875">
        <ele>532.91</ele>
        <time>2019-03-26T13:21:47.000Z</time>
      </trkpt>
      <trkpt lat="44.76126" lon="4.55887">
        <ele>527.79</ele>
        <time>2019-03-26T13:22:07.000Z</time>
      </trkpt>
      <trkpt lat="44.76109" lon="4.55903">
        <ele>526.66</ele>
        <time>2019-03-26T13:22:27.000Z</time>
      </trkpt>
      <trkpt lat="44.76093" lon="4.55916">
        <ele>533.58</ele>
        <time>2019-03-26T13:22:47.000Z</time>
      </trkpt>
      <trkpt lat="44.76075" lon="4.55939">
        <ele>542.6</ele>
        <time>2019-03-26T13:23:07.000Z</time>
      </trkpt>
      <trkpt lat="44.7606" lon="4.55953">
        <ele>543.48</ele>
        <time>2019-03-26T13:23:27.000Z</time>
      </trkpt>
      <trkpt lat="44.76038" lon="4.5596">
        <ele>540.6</ele>
        <time>2019-03-26T13:23:47.000Z</time>
      </trkpt>
      <trkpt lat="44.76018" lon="4.55962">
        <ele>533.88</ele>
        <time>2019-03-26T13:24:07.000Z</time>
      </trkpt>
      <trkpt lat="44.75995" lon="4.55957">
        <ele>537.85</ele>
        <time>2019-03-26T13:24:27.000Z</time>
      </trkpt>
      <trkpt lat="44.75975" lon="4.55954">
        <ele>543.03</ele>
        <time>2019-03-26T13:24:47.000Z</time>
      </trkpt>
      <trkpt lat="44.75956" lon="4.55956">
        <ele>550.83</ele>
        <time>2019-03-26T13:25:07.000Z</time>
      </trkpt>
      <trkpt lat="44.75936" lon="4.55955">
        <ele>560.48</ele>
        <time>2019-03-26T13:25:27.000Z</time>
      </trkpt>
      <trkpt lat="44.75914" lon="4.55964">
        <ele>559.8</ele>
        <time>2019-03-26T13:25:47.000Z</time>
      </trkpt>
      <trkpt lat="44.75897" lon="4.55962">
        <ele>552.66</ele>
        <time>2019-03-26T13:26:07.000Z</time>
      </trkpt>
      <trkpt lat="44.75875" lon="4.55968">
        <ele>560.39</ele>
        <time>2019-03-26T13:26:27.000Z</time>
      </trkpt>
      <trkpt lat="44.75855" lon="4.55978">
        <ele>570.39</ele>
        <time>2019-03-26T13:26:47.000Z</time>
      </trkpt>
      <trkpt lat="44.75856" lon="4.56006">
        <ele>582.35</ele>
        <time>2019-03-26T13:27:07.000Z</time>
      </trkpt>
      <trkpt lat="44.75876" lon="4.56017">
        <ele>587.98</ele>
        <time>2019-03-26T13:27:27.000Z</time>
      </trkpt>
      <trkpt lat="44.75896" lon="4.56023">
        <ele>590.84</ele>
        <time>2019-03-26T13:27:47.000Z</time>
      </trkpt>
      <trkpt lat="44.75898" lon="4.56045">
        <ele>592.63</ele>
        <time>2019-03-26T13:28:07.000Z</time>
      </trkpt>
      <trkpt lat="44.75902" lon="4.56074">
        <ele>586.68</ele>
        <time>2019-03-26T13:28:27.000Z</time>
      </trkpt>
      <trkpt lat="44.75898" lon="4.56101">
        <ele>580.91</ele>
        <time>2019-03-26T13:28:47.000Z</time>
      </trkpt>
      <trkpt lat="44.75904" lon="4.5613">
        <ele>579.4</ele>
        <time>2019-03-26T13:29:07.000Z</time>
      </trkpt>
      <trkpt lat="44.75901" lon="4.56165">
        <ele>586.51</ele>
        <time>2019-03-26T13:29:27.000Z</time>
      </trkpt>
      <trkpt lat="44.75905" lon="4.56201">
        <ele>581.74</ele>
        <time>2019-03-26T13:29:47.000Z</time>
      </trkpt>
      <trkpt lat="44.759" lon="4.56241">
        <ele>591.67</ele>
        <time>2019-03-26T13:30:07.000Z</time>
      </trkpt>
      <trkpt lat="44.75887" lon="4.56275">
        <ele>589.94</ele>
        <time>2019-03-26T13:30:27.000Z</time>
      </trkpt>
      <trkpt lat="44.75874" lon="4.56304">
        <ele>590.91</ele>
        <time>2019-03-26T13:30:47.000Z</time>
      </trkpt>
      <trkpt lat="44.75854" lon="4.56328">
        <ele>598.45</ele>
        <time>2019-03-26T13:31:07.000Z</time>
      </trkpt>
      <trkpt lat="44.75839" lon="4.56344">
        <ele>595.94</ele>
        <time>2019-03-26T13:31:27.000Z</time>
      </trkpt>
      <trkpt lat="44.75826" lon="4.5635">
        <ele>602.11</ele>
        <time>2019-03-26T13:31:48.000Z</time>
      </trkpt>
      <trkpt lat="44.75814" lon="4.56372">
        <ele>596.5</ele>
        <time>2019-03-26T13:32:08.000Z</time>
      </trkpt>
      <trkpt lat="44.75799" lon="4.56402">
        <ele>589.93</ele>
        <time>2019-03-26T13:32:28.000Z</time>
      </trkpt>
      <trkpt lat="44.75783" lon="4.56423">
        <ele>602.42</ele>
        <time>2019-03-26T13:32:48.000Z</time>
      </trkpt>
      <trkpt lat="44.75767" lon="4.56456">
        <ele>603.66</ele>
        <time>2019-03-26T13:33:08.000Z</time>
      </trkpt>
      <trkpt lat="44.75764" lon="4.56486">
        <ele>601.96</ele>
        <time>2019-03-26T13:33:28.000Z</time>
      </trkpt>
      <trkpt lat="44.75764" lon="4.56516">
        <ele>599.93</ele>
        <time>2019-03-26T13:33:48.000Z</time>
      </trkpt>
      <trkpt lat="44.75765" lon="4.56547">
        <ele>599.12</ele>
        <time>2019-03-26T13:34:08.000Z</time>
      </trkpt>
      <trkpt lat="44.7577" lon="4.5658">
        <ele>597.61</ele>
        <time>2019-03-26T13:34:28.000Z</time>
      </trkpt>
      <trkpt lat="44.75766" lon="4.56617">
        <ele>600.68</ele>
        <time>2019-03-26T13:34:48.000Z</time>
      </trkpt>
      <trkpt lat="44.75775" lon="4.56653">
        <ele>597.41</ele>
        <time>2019-03-26T13:35:08.000Z</time>
      </trkpt>
      <trkpt lat="44.75777" lon="4.56684">
        <ele>590.35</ele>
        <time>2019-03-26T13:35:28.000Z</time>
      </trkpt>
      <trkpt lat="44.75784" lon="4.56723">
        <ele>604.32</ele>
        <time>2019-03-26T13:35:48.000Z</time>
      </trkpt>
      <trkpt lat="44.7579" lon="4.56756">
        <ele>601.74</ele>
        <time>2019-03-26T13:36:08.000Z</time>
      </trkpt>
      <trkpt lat="44.75789" lon="4.56795">
        <ele>603.52</ele>
        <time>2019-03-26T13:36:28.000Z</time>
      </trkpt>
      <trkpt lat="44.7579" lon="4.56826">
        <ele>611.73</ele>
        <time>2019-03-26T13:36:48.000Z</time>
      </trkpt>
      <trkpt lat="44.75785" lon="4.5686">
        <ele>608.43</ele>
        <time>2019-03-26T13:37:08.000Z</time>
      </trkpt>
      <trkpt lat="44.75783" lon="4.56891">
        <ele>602.7</ele>
        <time>2019-03-26T13:37:28.000Z</time>
      </trkpt>
      <trkpt lat="44.75782" lon="4.56927">
        <ele>601</ele>
        <time>2019-03-26T13:37:48.000Z</time>
      </trkpt>
      <trkpt lat="44.75787" lon="4.56967">
        <ele>594.62</ele>
        <time>2019-03-26T13:38:08.000Z</time>
      </trkpt>
      <trkpt lat="44.75786" lon="4.56995">
        <ele>590.67</ele>
        <time>2019-03-26T13:38:28.000Z</time>
      </trkpt>
      <trkpt lat="44.75785" lon="4.57028">
        <ele>591.63</ele>
        <time>2019-03-26T13:38:48.000Z</time>
      </trkpt>
      <trkpt lat="44.75778" lon="4.5706">
        <ele>597.18</ele>
        <time>2019-03-26T13:39:08.000Z</time>
      </trkpt>
      <trkpt lat="44.75765" lon="4.57099">
        <ele>599.68</ele>
        <time>2019-03-26T13:39:28.000Z</time>
      </trkpt>
      <trkpt lat="44.75756" lon="4.57135">
        <ele>600.43</ele>
        <time>2019-03-26T13:39:48.000Z</time>
      </trkpt>
      <trkpt lat="44.7575" lon="4.57162">
        <ele>595.5</ele>
        <time>2019-03-26T13:40:08.000Z</time>
      </trkpt>
      <trkpt lat="44.75743" lon="4.57187">
        <ele>596.93</ele>
        <time>2019-03-26T13:40:28.000Z</time>
      </trkpt>
      <trkpt lat="44.75738" lon="4.57221">
        <ele>600.75</ele>
        <time>2019-03-26T13:40:48.000Z</time>
      </trkpt>
      <trkpt lat="44.7574" lon="4.57264">
        <ele>605.2</ele>
        <time>2019-03-26T13:41:08.000Z</time>
      </trkpt>
      <trkpt lat="44.75744" lon="4.57312">
        <ele>608.44</ele>
        <time>2019-03-26T13:41:28.000Z</time>
      </trkpt>
      <trkpt lat="44.75756" lon="4.57344">
        <ele>605.47</ele>
        <time>2019-03-26T13:41:48.000Z</time>
      </trkpt>
      <trkpt lat="44.75765" lon="4.57379">
        <ele>604.91</ele>
        <time>2019-03-26T13:42:08.000Z</time>
      </trkpt>
      <trkpt lat="44.7578" lon="4.57414">
        <ele>604.7</ele>
        <time>2019-03-26T13:42:28.000Z</time>
      </trkpt>
      <trkpt lat="44.75791" lon="4.57446">
        <ele>604.88</ele>
        <time>2019-03-26T13:42:48.000Z</time>
      </trkpt>
      <trkpt lat="44.75791" lon="4.57468">
        <ele>589.74</ele>
        <time>2019-03-26T13:44:03.000Z</time>
      </trkpt>
      <trkpt lat="44.75811" lon="4.57497">
        <ele>592.46</ele>
        <time>2019-03-26T13:44:23.000Z</time>
      </trkpt>
      <trkpt lat="44.75827" lon="4.57523">
        <ele>595.45</ele>
        <time>2019-03-26T13:44:43.000Z</time>
      </trkpt>
      <trkpt lat="44.75843" lon="4.57554">
        <ele>591.75</ele>
        <time>2019-03-26T13:45:03.000Z</time>
      </trkpt>
      <trkpt lat="44.75852" lon="4.57593">
        <ele>592.42</ele>
        <time>2019-03-26T13:45:23.000Z</time>
      </trkpt>
      <trkpt lat="44.75862" lon="4.57626">
        <ele>590.68</ele>
        <time>2019-03-26T13:45:43.000Z</time>
      </trkpt>
      <trkpt lat="44.75874" lon="4.57656">
        <ele>588.7</ele>
        <time>2019-03-26T13:46:03.000Z</time>
      </trkpt>
      <trkpt lat="44.75881" lon="4.5769">
        <ele>594.72</ele>
        <time>2019-03-26T13:46:23.000Z</time>
      </trkpt>
      <trkpt lat="44.75886" lon="4.57727">
        <ele>592.01</ele>
        <time>2019-03-26T13:46:43.000Z</time>
      </trkpt>
      <trkpt lat="44.7589" lon="4.57766">
        <ele>587.67</ele>
        <time>2019-03-26T13:47:03.000Z</time>
      </trkpt>
      <trkpt lat="44.75898" lon="4.57805">
        <ele>587.49</ele>
        <time>2019-03-26T13:47:23.000Z</time>
      </trkpt>
      <trkpt lat="44.75901" lon="4.5784">
        <ele>586.44</ele>
        <time>2019-03-26T13:47:43.000Z</time>
      </trkpt>
      <trkpt lat="44.7591" lon="4.5788">
        <ele>590.87</ele>
        <time>2019-03-26T13:48:03.000Z</time>
      </trkpt>
      <trkpt lat="44.75912" lon="4.57912">
        <ele>586.72</ele>
        <time>2019-03-26T13:48:23.000Z</time>
      </trkpt>
      <trkpt lat="44.75919" lon="4.57946">
        <ele>585.67</ele>
        <time>2019-03-26T13:48:43.000Z</time>
      </trkpt>
      <trkpt lat="44.75934" lon="4.57941">
        <ele>583.65</ele>
        <time>2019-03-26T13:49:09.000Z</time>
      </trkpt>
      <trkpt lat="44.75952" lon="4.57924">
        <ele>575.78</ele>
        <time>2019-03-26T13:49:29.000Z</time>
      </trkpt>
      <trkpt lat="44.75979" lon="4.57903">
        <ele>580.96</ele>
        <time>2019-03-26T13:49:49.000Z</time>
      </trkpt>
      <trkpt lat="44.75997" lon="4.57909">
        <ele>581</ele>
        <time>2019-03-26T13:50:09.000Z</time>
      </trkpt>
      <trkpt lat="44.76019" lon="4.57893">
        <ele>579.71</ele>
        <time>2019-03-26T13:50:29.000Z</time>
      </trkpt>
      <trkpt lat="44.76033" lon="4.57884">
        <ele>580.95</ele>
        <time>2019-03-26T13:50:50.000Z</time>
      </trkpt>
      <trkpt lat="44.76048" lon="4.57888">
        <ele>578.53</ele>
        <time>2019-03-26T13:51:10.000Z</time>
      </trkpt>
      <trkpt lat="44.76062" lon="4.57892">
        <ele>577.77</ele>
        <time>2019-03-26T13:51:36.000Z</time>
      </trkpt>
      <trkpt lat="44.76076" lon="4.5791">
        <ele>567.95</ele>
        <time>2019-03-26T13:51:56.000Z</time>
      </trkpt>
      <trkpt lat="44.76092" lon="4.57917">
        <ele>565.01</ele>
        <time>2019-03-26T13:52:16.000Z</time>
      </trkpt>
      <trkpt lat="44.76109" lon="4.57907">
        <ele>558.52</ele>
        <time>2019-03-26T13:52:36.000Z</time>
      </trkpt>
      <trkpt lat="44.76125" lon="4.57909">
        <ele>560.7</ele>
        <time>2019-03-26T13:52:56.000Z</time>
      </trkpt>
      <trkpt lat="44.76133" lon="4.57926">
        <ele>560.43</ele>
        <time>2019-03-26T13:53:27.000Z</time>
      </trkpt>
      <trkpt lat="44.76139" lon="4.57948">
        <ele>554.51</ele>
        <time>2019-03-26T13:53:47.000Z</time>
      </trkpt>
      <trkpt lat="44.76142" lon="4.57968">
        <ele>547.83</ele>
        <time>2019-03-26T13:54:07.000Z</time>
      </trkpt>
      <trkpt lat="44.76143" lon="4.57987">
        <ele>544.61</ele>
        <time>2019-03-26T13:55:05.000Z</time>
      </trkpt>
      <trkpt lat="44.7614" lon="4.58006">
        <ele>538.45</ele>
        <time>2019-03-26T13:55:27.000Z</time>
      </trkpt>
      <trkpt lat="44.76141" lon="4.58037">
        <ele>541.42</ele>
        <time>2019-03-26T13:55:47.000Z</time>
      </trkpt>
      <trkpt lat="44.76159" lon="4.58066">
        <ele>540.95</ele>
        <time>2019-03-26T13:56:07.000Z</time>
      </trkpt>
      <trkpt lat="44.76186" lon="4.58087">
        <ele>544.39</ele>
        <time>2019-03-26T13:56:27.000Z</time>
      </trkpt>
      <trkpt lat="44.76203" lon="4.58099">
        <ele>546.58</ele>
        <time>2019-03-26T13:56:47.000Z</time>
      </trkpt>
      <trkpt lat="44.76234" lon="4.58107">
        <ele>546.7</ele>
        <time>2019-03-26T13:57:07.000Z</time>
      </trkpt>
      <trkpt lat="44.76254" lon="4.58106">
        <ele>543.77</ele>
        <time>2019-03-26T13:57:27.000Z</time>
      </trkpt>
      <trkpt lat="44.76267" lon="4.58116">
        <ele>535.45</ele>
        <time>2019-03-26T13:57:48.000Z</time>
      </trkpt>
      <trkpt lat="44.7628" lon="4.58121">
        <ele>531.66</ele>
        <time>2019-03-26T13:58:09.000Z</time>
      </trkpt>
      <trkpt lat="44.76295" lon="4.58118">
        <ele>532.39</ele>
        <time>2019-03-26T13:58:29.000Z</time>
      </trkpt>
      <trkpt lat="44.7632" lon="4.58123">
        <ele>531.81</ele>
        <time>2019-03-26T13:58:49.000Z</time>
      </trkpt>
      <trkpt lat="44.76337" lon="4.5813">
        <ele>529.8</ele>
        <time>2019-03-26T13:59:09.000Z</time>
      </trkpt>
      <trkpt lat="44.76351" lon="4.58131">
        <ele>525.26</ele>
        <time>2019-03-26T13:59:34.000Z</time>
      </trkpt>
      <trkpt lat="44.76373" lon="4.58136">
        <ele>518.18</ele>
        <time>2019-03-26T13:59:54.000Z</time>
      </trkpt>
      <trkpt lat="44.764" lon="4.58147">
        <ele>514.66</ele>
        <time>2019-03-26T14:00:14.000Z</time>
      </trkpt>
      <trkpt lat="44.7642" lon="4.5816">
        <ele>513.69</ele>
        <time>2019-03-26T14:00:34.000Z</time>
      </trkpt>
      <trkpt lat="44.76436" lon="4.58176">
        <ele>510.78</ele>
        <time>2019-03-26T14:00:54.000Z</time>
      </trkpt>
      <trkpt lat="44.76444" lon="4.58201">
        <ele>504.44</ele>
        <time>2019-03-26T14:01:14.000Z</time>
      </trkpt>
      <trkpt lat="44.76455" lon="4.58221">
        <ele>501.45</ele>
        <time>2019-03-26T14:01:34.000Z</time>
      </trkpt>
      <trkpt lat="44.76483" lon="4.5823">
        <ele>508.58</ele>
        <time>2019-03-26T14:01:54.000Z</time>
      </trkpt>
      <trkpt lat="44.7651" lon="4.5824">
        <ele>504.89</ele>
        <time>2019-03-26T14:02:14.000Z</time>
      </trkpt>
      <trkpt lat="44.76529" lon="4.58245">
        <ele>501.2</ele>
        <time>2019-03-26T14:02:34.000Z</time>
      </trkpt>
      <trkpt lat="44.7655" lon="4.58261">
        <ele>509.73</ele>
        <time>2019-03-26T14:02:54.000Z</time>
      </trkpt>
      <trkpt lat="44.76572" lon="4.58275">
        <ele>515.75</ele>
        <time>2019-03-26T14:03:14.000Z</time>
      </trkpt>
      <trkpt lat="44.76594" lon="4.58272">
        <ele>508.95</ele>
        <time>2019-03-26T14:03:34.000Z</time>
      </trkpt>
      <trkpt lat="44.76609" lon="4.58274">
        <ele>512.95</ele>
        <time>2019-03-26T14:03:55.000Z</time>
      </trkpt>
      <trkpt lat="44.76634" lon="4.58287">
        <ele>507.7</ele>
        <time>2019-03-26T14:04:15.000Z</time>
      </trkpt>
      <trkpt lat="44.7666" lon="4.58291">
        <ele>503.71</ele>
        <time>2019-03-26T14:04:35.000Z</time>
      </trkpt>
      <trkpt lat="44.76681" lon="4.58297">
        <ele>498.02</ele>
        <time>2019-03-26T14:04:55.000Z</time>
      </trkpt>
      <trkpt lat="44.76721" lon="4.58307">
        <ele>494.5</ele>
        <time>2019-03-26T14:05:15.000Z</time>
      </trkpt>
      <trkpt lat="44.76742" lon="4.58326">
        <ele>485.02</ele>
        <time>2019-03-26T14:05:35.000Z</time>
      </trkpt>
      <trkpt lat="44.76759" lon="4.5835">
        <ele>480.97</ele>
        <time>2019-03-26T14:05:55.000Z</time>
      </trkpt>
      <trkpt lat="44.76766" lon="4.58369">
        <ele>471.04</ele>
        <time>2019-03-26T14:06:15.000Z</time>
      </trkpt>
      <trkpt lat="44.76783" lon="4.58395">
        <ele>467.77</ele>
        <time>2019-03-26T14:06:35.000Z</time>
      </trkpt>
      <trkpt lat="44.76801" lon="4.58416">
        <ele>461.77</ele>
        <time>2019-03-26T14:06:55.000Z</time>
      </trkpt>
      <trkpt lat="44.76815" lon="4.58445">
        <ele>463.45</ele>
        <time>2019-03-26T14:07:15.000Z</time>
      </trkpt>
      <trkpt lat="44.76835" lon="4.58466">
        <ele>458.77</ele>
        <time>2019-03-26T14:07:35.000Z</time>
      </trkpt>
      <trkpt lat="44.76853" lon="4.58483">
        <ele>463.71</ele>
        <time>2019-03-26T14:07:55.000Z</time>
      </trkpt>
      <trkpt lat="44.76869" lon="4.58502">
        <ele>457.71</ele>
        <time>2019-03-26T14:08:15.000Z</time>
      </trkpt>
      <trkpt lat="44.76892" lon="4.58513">
        <ele>453.47</ele>
        <time>2019-03-26T14:08:35.000Z</time>
      </trkpt>
      <trkpt lat="44.7691" lon="4.58532">
        <ele>457.44</ele>
        <time>2019-03-26T14:08:55.000Z</time>
      </trkpt>
      <trkpt lat="44.76922" lon="4.58556">
        <ele>462.71</ele>
        <time>2019-03-26T14:09:15.000Z</time>
      </trkpt>
      <trkpt lat="44.76924" lon="4.58576">
        <ele>465.77</ele>
        <time>2019-03-26T14:09:45.000Z</time>
      </trkpt>
      <trkpt lat="44.76925" lon="4.58604">
        <ele>464.72</ele>
        <time>2019-03-26T14:10:05.000Z</time>
      </trkpt>
      <trkpt lat="44.76938" lon="4.5861">
        <ele>465.71</ele>
        <time>2019-03-26T14:10:36.000Z</time>
      </trkpt>
      <trkpt lat="44.76949" lon="4.58597">
        <ele>462.78</ele>
        <time>2019-03-26T14:10:57.000Z</time>
      </trkpt>
      <trkpt lat="44.76947" lon="4.5857">
        <ele>464.65</ele>
        <time>2019-03-26T14:11:17.000Z</time>
      </trkpt>
      <trkpt lat="44.76942" lon="4.58551">
        <ele>465.72</ele>
        <time>2019-03-26T14:12:03.000Z</time>
      </trkpt>
      <trkpt lat="44.76937" lon="4.58533">
        <ele>467.77</ele>
        <time>2019-03-26T14:12:23.000Z</time>
      </trkpt>
      <trkpt lat="44.76926" lon="4.58519">
        <ele>471.71</ele>
        <time>2019-03-26T14:12:51.000Z</time>
      </trkpt>
      <trkpt lat="44.7692" lon="4.58501">
        <ele>470.71</ele>
        <time>2019-03-26T14:13:11.000Z</time>
      </trkpt>
      <trkpt lat="44.76917" lon="4.58482">
        <ele>474.7</ele>
        <time>2019-03-26T14:13:48.000Z</time>
      </trkpt>
      <trkpt lat="44.769" lon="4.58459">
        <ele>480.84</ele>
        <time>2019-03-26T14:14:08.000Z</time>
      </trkpt>
      <trkpt lat="44.76881" lon="4.58437">
        <ele>476.16</ele>
        <time>2019-03-26T14:14:28.000Z</time>
      </trkpt>
      <trkpt lat="44.76868" lon="4.58413">
        <ele>481.7</ele>
        <time>2019-03-26T14:14:48.000Z</time>
      </trkpt>
      <trkpt lat="44.76862" lon="4.58388">
        <ele>487.69</ele>
        <time>2019-03-26T14:15:08.000Z</time>
      </trkpt>
      <trkpt lat="44.76863" lon="4.58368">
        <ele>494.08</ele>
        <time>2019-03-26T14:15:28.000Z</time>
      </trkpt>
      <trkpt lat="44.76863" lon="4.58332">
        <ele>497.02</ele>
        <time>2019-03-26T14:15:48.000Z</time>
      </trkpt>
      <trkpt lat="44.76869" lon="4.58309">
        <ele>504.75</ele>
        <time>2019-03-26T14:16:08.000Z</time>
      </trkpt>
      <trkpt lat="44.76878" lon="4.58325">
        <ele>498.46</ele>
        <time>2019-03-26T14:16:28.000Z</time>
      </trkpt>
      <trkpt lat="44.7689" lon="4.58355">
        <ele>498.68</ele>
        <time>2019-03-26T14:16:48.000Z</time>
      </trkpt>
      <trkpt lat="44.76906" lon="4.58381">
        <ele>500.93</ele>
        <time>2019-03-26T14:17:08.000Z</time>
      </trkpt>
      <trkpt lat="44.76917" lon="4.58393">
        <ele>499.19</ele>
        <time>2019-03-26T14:17:28.000Z</time>
      </trkpt>
      <trkpt lat="44.76932" lon="4.58409">
        <ele>496</ele>
        <time>2019-03-26T14:17:48.000Z</time>
      </trkpt>
      <trkpt lat="44.76947" lon="4.58418">
        <ele>501.4</ele>
        <time>2019-03-26T14:18:08.000Z</time>
      </trkpt>
      <trkpt lat="44.76962" lon="4.58436">
        <ele>503.01</ele>
        <time>2019-03-26T14:18:28.000Z</time>
      </trkpt>
      <trkpt lat="44.76963" lon="4.58416">
        <ele>512.46</ele>
        <time>2019-03-26T14:19:08.000Z</time>
      </trkpt>
      <trkpt lat="44.76957" lon="4.58395">
        <ele>507.75</ele>
        <time>2019-03-26T14:19:30.000Z</time>
      </trkpt>
      <trkpt lat="44.76947" lon="4.58361">
        <ele>518.38</ele>
        <time>2019-03-26T14:19:50.000Z</time>
      </trkpt>
      <trkpt lat="44.76944" lon="4.58335">
        <ele>524.69</ele>
        <time>2019-03-26T14:20:10.000Z</time>
      </trkpt>
      <trkpt lat="44.76944" lon="4.58308">
        <ele>518.71</ele>
        <time>2019-03-26T14:20:30.000Z</time>
      </trkpt>
      <trkpt lat="44.76943" lon="4.58283">
        <ele>520.78</ele>
        <time>2019-03-26T14:20:50.000Z</time>
      </trkpt>
      <trkpt lat="44.76946" lon="4.58251">
        <ele>525.09</ele>
        <time>2019-03-26T14:21:10.000Z</time>
      </trkpt>
      <trkpt lat="44.76948" lon="4.58226">
        <ele>526.7</ele>
        <time>2019-03-26T14:21:30.000Z</time>
      </trkpt>
      <trkpt lat="44.7695" lon="4.58192">
        <ele>537.65</ele>
        <time>2019-03-26T14:21:50.000Z</time>
      </trkpt>
      <trkpt lat="44.7696" lon="4.58161">
        <ele>547.96</ele>
        <time>2019-03-26T14:22:10.000Z</time>
      </trkpt>
      <trkpt lat="44.76969" lon="4.58138">
        <ele>545.7</ele>
        <time>2019-03-26T14:22:30.000Z</time>
      </trkpt>
      <trkpt lat="44.76978" lon="4.58117">
        <ele>543.14</ele>
        <time>2019-03-26T14:22:50.000Z</time>
      </trkpt>
      <trkpt lat="44.76988" lon="4.58094">
        <ele>543.34</ele>
        <time>2019-03-26T14:23:10.000Z</time>
      </trkpt>
      <trkpt lat="44.77001" lon="4.58068">
        <ele>550.07</ele>
        <time>2019-03-26T14:23:30.000Z</time>
      </trkpt>
      <trkpt lat="44.77016" lon="4.58058">
        <ele>553.69</ele>
        <time>2019-03-26T14:23:50.000Z</time>
      </trkpt>
      <trkpt lat="44.77031" lon="4.58041">
        <ele>553.43</ele>
        <time>2019-03-26T14:24:10.000Z</time>
      </trkpt>
      <trkpt lat="44.77042" lon="4.58014">
        <ele>549.45</ele>
        <time>2019-03-26T14:24:30.000Z</time>
      </trkpt>
      <trkpt lat="44.77054" lon="4.57987">
        <ele>553.71</ele>
        <time>2019-03-26T14:24:50.000Z</time>
      </trkpt>
      <trkpt lat="44.77067" lon="4.57961">
        <ele>561.41</ele>
        <time>2019-03-26T14:25:10.000Z</time>
      </trkpt>
      <trkpt lat="44.77078" lon="4.57938">
        <ele>555.71</ele>
        <time>2019-03-26T14:25:30.000Z</time>
      </trkpt>
      <trkpt lat="44.77084" lon="4.57902">
        <ele>554.71</ele>
        <time>2019-03-26T14:25:50.000Z</time>
      </trkpt>
      <trkpt lat="44.77095" lon="4.57878">
        <ele>553.7</ele>
        <time>2019-03-26T14:26:10.000Z</time>
      </trkpt>
      <trkpt lat="44.77106" lon="4.57849">
        <ele>566.61</ele>
        <time>2019-03-26T14:26:30.000Z</time>
      </trkpt>
      <trkpt lat="44.77112" lon="4.57831">
        <ele>561.76</ele>
        <time>2019-03-26T14:26:51.000Z</time>
      </trkpt>
      <trkpt lat="44.77122" lon="4.57804">
        <ele>562.44</ele>
        <time>2019-03-26T14:27:11.000Z</time>
      </trkpt>
      <trkpt lat="44.7713" lon="4.57776">
        <ele>562.37</ele>
        <time>2019-03-26T14:27:31.000Z</time>
      </trkpt>
      <trkpt lat="44.77148" lon="4.57759">
        <ele>571.73</ele>
        <time>2019-03-26T14:27:51.000Z</time>
      </trkpt>
      <trkpt lat="44.77162" lon="4.5776">
        <ele>572.88</ele>
        <time>2019-03-26T14:28:11.000Z</time>
      </trkpt>
      <trkpt lat="44.77188" lon="4.5776">
        <ele>570.77</ele>
        <time>2019-03-26T14:28:31.000Z</time>
      </trkpt>
      <trkpt lat="44.77214" lon="4.57746">
        <ele>578.3</ele>
        <time>2019-03-26T14:28:51.000Z</time>
      </trkpt>
      <trkpt lat="44.77233" lon="4.57724">
        <ele>578.67</ele>
        <time>2019-03-26T14:29:11.000Z</time>
      </trkpt>
      <trkpt lat="44.77237" lon="4.57696">
        <ele>570.75</ele>
        <time>2019-03-26T14:29:31.000Z</time>
      </trkpt>
      <trkpt lat="44.77233" lon="4.57663">
        <ele>569.75</ele>
        <time>2019-03-26T14:29:51.000Z</time>
      </trkpt>
      <trkpt lat="44.77225" lon="4.57625">
        <ele>573.69</ele>
        <time>2019-03-26T14:30:11.000Z</time>
      </trkpt>
      <trkpt lat="44.77225" lon="4.57593">
        <ele>576.52</ele>
        <time>2019-03-26T14:30:31.000Z</time>
      </trkpt>
      <trkpt lat="44.7722" lon="4.5756">
        <ele>578.57</ele>
        <time>2019-03-26T14:30:51.000Z</time>
      </trkpt>
      <trkpt lat="44.77216" lon="4.57528">
        <ele>582.77</ele>
        <time>2019-03-26T14:31:11.000Z</time>
      </trkpt>
      <trkpt lat="44.7721" lon="4.57499">
        <ele>582.58</ele>
        <time>2019-03-26T14:31:31.000Z</time>
      </trkpt>
      <trkpt lat="44.77201" lon="4.57467">
        <ele>579.39</ele>
        <time>2019-03-26T14:31:51.000Z</time>
      </trkpt>
      <trkpt lat="44.77179" lon="4.57439">
        <ele>584.93</ele>
        <time>2019-03-26T14:32:11.000Z</time>
      </trkpt>
      <trkpt lat="44.77169" lon="4.57416">
        <ele>588.62</ele>
        <time>2019-03-26T14:32:31.000Z</time>
      </trkpt>
      <trkpt lat="44.77151" lon="4.57404">
        <ele>584.68</ele>
        <time>2019-03-26T14:32:51.000Z</time>
      </trkpt>
      <trkpt lat="44.77136" lon="4.57392">
        <ele>584.91</ele>
        <time>2019-03-26T14:33:11.000Z</time>
      </trkpt>
      <trkpt lat="44.77116" lon="4.57376">
        <ele>590</ele>
        <time>2019-03-26T14:33:31.000Z</time>
      </trkpt>
      <trkpt lat="44.77103" lon="4.57352">
        <ele>590.38</ele>
        <time>2019-03-26T14:33:51.000Z</time>
      </trkpt>
      <trkpt lat="44.7709" lon="4.57318">
        <ele>590.37</ele>
        <time>2019-03-26T14:34:11.000Z</time>
      </trkpt>
      <trkpt lat="44.77085" lon="4.57283">
        <ele>587.75</ele>
        <time>2019-03-26T14:34:31.000Z</time>
      </trkpt>
      <trkpt lat="44.77086" lon="4.57258">
        <ele>581.11</ele>
        <time>2019-03-26T14:34:51.000Z</time>
      </trkpt>
      <trkpt lat="44.77098" lon="4.57246">
        <ele>586.57</ele>
        <time>2019-03-26T14:37:30.000Z</time>
      </trkpt>
      <trkpt lat="44.77094" lon="4.57247">
        <ele>588.68</ele>
        <time>2019-03-26T14:38:21.000Z</time>
      </trkpt>
    </trkseg>
  </trk>
</gpx>